M I D A S
Marine Information and Data Acquisition System
Tripno 2228 of the Zeeleeuw from 2011-10-10 06:46:27 to 2011-10-10 09:52:16
Back to CruiseResearch ActivitiesStationsMapUnderway DataData graphs

EquipmentUnitsComment
TimeDGPSUTC
LatitudeDGPSDM.mWGS84
LongitudeDGPSDM.mWGS84
TemperatureSBE03/SBE38deg celciusITS90
ConductivitySBE21S/mITS90
SalinitySBE21 Practical Salinity Units
ChlorophylAChelsea fluorimeterg/lCalibrated in Aceton
Missing or incorrect values are displayed as -999
Sea surface data collected by the RV Zeeleeuw from 2011-10-10 06:42:49 to 2011-10-10 10:20:33
                                                                                    Next 1000 lines
Time Latitude Longitude Temperature Conductivity Salinity ChlorophylA
2011-10-10 06:43:00 51°13.637 2°56.013 20.7333 0.012484 0.061501 -3.020363
2011-10-10 06:43:04 51°13.637 2°56.011 20.7583 0.012484 0.061504 -3.020363
2011-10-10 06:43:10 51°13.639 2°56.005 20.7445 0.012484 0.061506 -3.020363
2011-10-10 06:43:14 51°13.64 2°56.001 20.6844 0.012484 0.061508 -3.020363
2011-10-10 06:43:21 51°13.642 2°55.992 20.792 0.012484 0.061509 -3.020363
2011-10-10 06:43:26 51°13.644 2°55.985 20.781 0.012484 0.061512 -3.020363
2011-10-10 06:43:32 51°13.646 2°55.976 20.8267 0.012484 0.061512 -3.020363
2011-10-10 06:43:38 51°13.648 2°55.967 20.808 0.012484 0.061516 -3.020363
2011-10-10 06:43:43 51°13.65 2°55.959 20.8199 0.012484 0.061518 -3.020363
2011-10-10 06:43:48 51°13.652 2°55.952 20.8213 0.012484 0.06152 -3.020363
2011-10-10 06:43:53 51°13.653 2°55.944 20.8023 0.012484 0.061522 -3.020363
2011-10-10 06:43:58 51°13.655 2°55.937 20.8376 0.012484 0.061525 -3.020363
2011-10-10 06:44:03 51°13.656 2°55.93 20.8323 0.012484 0.061525 -3.020363
2011-10-10 06:44:08 51°13.657 2°55.924 20.8636 0.012484 0.061526 -3.020363
2011-10-10 06:44:13 51°13.658 2°55.92 20.8553 0.012484 0.061529 -3.020363
2011-10-10 06:44:18 51°13.659 2°55.917 19.0297 0.012484 0.061532 -3.020363
2011-10-10 06:44:23 51°13.659 2°55.914 18.4626 0.012484 0.061555 -3.020363
2011-10-10 06:44:27 51°13.66 2°55.912 17.9472 0.012484 0.061576 -3.020363
2011-10-10 06:44:33 51°13.661 2°55.908 17.6227 3.976333 25.469731 -3.020363
2011-10-10 06:44:37 51°13.662 2°55.905 17.4527 3.976333 25.469731 -3.020363
2011-10-10 06:44:42 51°13.663 2°55.901 17.2845 4.459703 30.367891 -3.020363
2011-10-10 06:44:47 51°13.664 2°55.897 17.1491 3.233727 21.596063 -3.020363
2011-10-10 06:44:52 51°13.664 2°55.892 17.1287 3.004505 20.491341 -3.020363
2011-10-10 06:44:57 51°13.665 2°55.888 17.0638 2.967077 20.648144 -3.020363
2011-10-10 06:45:02 51°13.666 2°55.882 16.9517 2.967077 20.648144 -3.020363
2011-10-10 06:45:08 51°13.667 2°55.876 16.9422 2.934612 20.700283 -3.020363
2011-10-10 06:45:13 51°13.668 2°55.871 16.9303 2.908869 20.737123 -3.020363
2011-10-10 06:45:18 51°13.669 2°55.865 16.8928 2.884161 20.762265 -3.020363
2011-10-10 06:45:23 51°13.671 2°55.859 16.7843 2.863174 20.740915 -3.020363
2011-10-10 06:45:28 51°13.672 2°55.852 16.7651 2.838259 20.632482 -3.020363
2011-10-10 06:45:33 51°13.673 2°55.845 16.7747 2.838259 20.632482 -3.020363
2011-10-10 06:45:38 51°13.674 2°55.837 16.729 2.814896 20.539059 -3.020363
2011-10-10 06:45:43 51°13.676 2°55.829 16.6794 2.793291 20.431449 -3.020363
2011-10-10 06:45:48 51°13.677 2°55.821 16.6626 2.771479 20.293251 -3.020363
2011-10-10 06:45:53 51°13.678 2°55.812 16.5913 2.750909 20.159953 -3.020363
2011-10-10 06:45:58 51°13.679 2°55.804 16.6132 2.73003 20.029845 -3.020363
2011-10-10 06:46:02 51°13.68 2°55.797 16.5629 2.73003 20.029845 -3.020363
2011-10-10 06:46:08 51°13.681 2°55.787 16.5314 2.711115 19.914085 -3.020363
2011-10-10 06:46:13 51°13.682 2°55.78 16.4757 2.693855 19.800779 -3.020363
2011-10-10 06:46:18 51°13.683 2°55.773 16.4254 2.677008 19.686721 -3.020363
2011-10-10 06:46:23 51°13.683 2°55.766 16.4104 2.662023 19.588335 -3.020363
2011-10-10 06:46:28 51°13.684 2°55.759 16.3374 2.645591 19.481615 -3.020363
2011-10-10 06:46:33 51°13.684 2°55.753 16.3315 2.645591 19.481615 -3.020363
2011-10-10 06:46:38 51°13.684 2°55.747 16.3385 2.632673 19.394234 -3.020363
2011-10-10 06:46:42 51°13.685 2°55.745 16.3335 2.626783 19.367492 -3.020363
2011-10-10 06:46:47 51°13.685 2°55.744 16.4596 2.612109 19.269963 -3.020363
2011-10-10 06:46:52 51°13.686 2°55.744 16.5536 2.599088 19.189164 -3.020363
2011-10-10 06:46:57 51°13.687 2°55.746 16.4731 2.586172 19.107149 -3.020363
2011-10-10 06:47:02 51°13.689 2°55.748 16.3791 2.586172 19.107149 -3.020363
2011-10-10 06:47:06 51°13.69 2°55.75 16.2833 2.574392 19.039974 -3.020363
2011-10-10 06:47:12 51°13.692 2°55.752 16.2634 2.562716 18.961658 -3.020363
2011-10-10 06:47:17 51°13.694 2°55.754 16.2183 2.552797 18.889913 -3.020363
2011-10-10 06:47:22 51°13.695 2°55.754 16.1497 2.547114 18.829761 -3.020363
2011-10-10 06:47:26 51°13.695 2°55.755 16.0639 2.545977 18.799739 -3.020363
2011-10-10 06:47:31 51°13.695 2°55.754 16.0147 2.545977 18.799739 -3.020363
2011-10-10 06:47:36 51°13.693 2°55.753 15.9594 2.536988 18.731096 -3.020363
2011-10-10 06:47:41 51°13.69 2°55.752 15.978 2.528309 18.687136 -3.020363
2011-10-10 06:47:46 51°13.688 2°55.751 15.9049 2.518391 18.635287 -3.020363
2011-10-10 06:47:51 51°13.686 2°55.75 15.8996 2.512192 18.608274 -3.020363
2011-10-10 06:47:57 51°13.686 2°55.75 15.8846 2.508886 18.608121 -3.020363
2011-10-10 06:48:03 51°13.687 2°55.75 15.8856 2.511263 18.658416 -3.020363
2011-10-10 06:48:08 51°13.69 2°55.751 15.9202 2.511263 18.658416 -3.020363
2011-10-10 06:48:13 51°13.693 2°55.749 15.917 2.499485 18.593417 -3.020363
2011-10-10 06:48:18 51°13.697 2°55.748 15.8913 2.49215 18.558118 -3.020363
2011-10-10 06:48:22 51°13.701 2°55.745 15.9359 2.4812 18.489442 -3.020363
2011-10-10 06:48:28 51°13.708 2°55.74 15.9545 2.472418 18.435012 -3.020363
2011-10-10 06:48:33 51°13.713 2°55.734 15.955 2.472418 18.435012 -3.020363
2011-10-10 06:48:38 51°13.72 2°55.728 15.9374 2.468493 18.413451 -3.020363
2011-10-10 06:48:42 51°13.726 2°55.723 15.898 2.461468 18.361652 -3.020363
2011-10-10 06:48:47 51°13.733 2°55.716 15.9115 2.455889 18.318298 -3.020363
2011-10-10 06:48:53 51°13.743 2°55.707 15.9044 2.451654 18.285922 -3.020363
2011-10-10 06:48:58 51°13.751 2°55.699 15.8734 2.448141 18.253489 -3.020363
2011-10-10 06:49:02 51°13.758 2°55.692 15.8622 2.448141 18.253489 -3.020363
2011-10-10 06:49:08 51°13.769 2°55.681 15.8603 2.443699 18.212367 -3.020363
2011-10-10 06:49:12 51°13.776 2°55.674 15.8308 2.44029 18.184903 -3.020363
2011-10-10 06:49:18 51°13.788 2°55.665 15.8141 2.437604 18.167054 -3.020363
2011-10-10 06:49:22 51°13.796 2°55.658 15.8431 2.434402 18.146836 -3.020363
2011-10-10 06:49:26 51°13.804 2°55.651 15.8279 2.43089 18.123708 -3.020363
2011-10-10 06:49:32 51°13.817 2°55.641 15.817 2.43089 18.123708 -3.020363
2011-10-10 06:49:36 51°13.825 2°55.635 15.8073 2.428307 18.110017 -3.020363
2011-10-10 06:49:42 51°13.839 2°55.626 15.812 2.425415 18.093416 -3.020363
2011-10-10 06:49:46 51°13.848 2°55.62 15.8215 2.421386 18.065299 -3.020363
2011-10-10 06:49:52 51°13.861 2°55.61 15.7896 2.4218 18.073854 -3.020363
2011-10-10 06:49:56 51°13.87 2°55.604 15.7749 2.416841 18.037383 -3.020363
2011-10-10 06:50:02 51°13.883 2°55.595 15.7882 2.414672 18.025186 -3.020363
2011-10-10 06:50:06 51°13.892 2°55.589 15.7906 2.414672 18.025186 -3.020363
2011-10-10 06:50:10 51°13.901 2°55.582 15.8089 2.412916 18.015255 -3.020363
2011-10-10 06:50:16 51°13.915 2°55.573 15.7317 2.410437 17.999406 -3.020363
2011-10-10 06:50:20 51°13.924 2°55.568 15.7337 2.406512 17.969514 -3.020363
2011-10-10 06:50:26 51°13.939 2°55.557 15.7481 2.404859 17.958574 -3.020363
2011-10-10 06:50:30 51°13.948 2°55.551 15.7341 2.404859 17.958574 -3.020363
2011-10-10 06:50:34 51°13.957 2°55.544 15.7126 2.402897 17.947673 -3.020363
2011-10-10 06:50:40 51°13.972 2°55.535 15.744 2.399798 17.926368 -3.020363
2011-10-10 06:50:46 51°13.986 2°55.525 15.7038 2.398662 17.918542 -3.020363
2011-10-10 06:50:50 51°13.996 2°55.519 15.7229 2.397009 17.9109 -3.020363
2011-10-10 06:50:54 51°14.006 2°55.512 15.7145 2.395976 17.90943 -3.020363
2011-10-10 06:50:58 51°14.016 2°55.506 15.7248 2.395976 17.90943 -3.020363
2011-10-10 06:51:04 51°14.031 2°55.496 15.6956 2.394014 17.895202 -3.020363
2011-10-10 06:51:10 51°14.046 2°55.486 15.7411 2.393084 17.892735 -3.020363
2011-10-10 06:51:14 51°14.055 2°55.479 15.7182 2.390089 17.871513 -3.020363
2011-10-10 06:51:19 51°14.068 2°55.471 15.6887 2.389676 17.871434 -3.020363
2011-10-10 06:51:24 51°14.08 2°55.462 15.7521 2.388849 17.867604 -3.020363
2011-10-10 06:51:30 51°14.095 2°55.452 15.6984 2.386783 17.850317 -3.020363
2011-10-10 06:51:34 51°14.104 2°55.445 15.6631 2.386783 17.850317 -3.020363
2011-10-10 06:51:39 51°14.117 2°55.436 15.7326 2.385854 17.84307 -3.020363
2011-10-10 06:51:44 51°14.129 2°55.426 15.6673 2.383891 17.825167 -3.020363
2011-10-10 06:51:50 51°14.143 2°55.415 15.6696 2.382239 17.814198 -3.020363
2011-10-10 06:51:54 51°14.153 2°55.407 15.6883 2.380896 17.806497 -3.020363
2011-10-10 06:51:59 51°14.165 2°55.398 15.7507 2.380896 17.806497 -3.020363
2011-10-10 06:52:05 51°14.179 2°55.385 15.6614 2.380896 17.804666 -3.020363
2011-10-10 06:52:10 51°14.191 2°55.375 15.655 2.378314 17.789008 -3.020363
2011-10-10 06:52:15 51°14.203 2°55.365 15.6526 2.378004 17.790494 -3.020363
2011-10-10 06:52:20 51°14.215 2°55.355 15.647 2.378004 17.796351 -3.020363
2011-10-10 06:52:25 51°14.227 2°55.344 15.6519 2.374182 17.768693 -3.020363
2011-10-10 06:52:30 51°14.239 2°55.334 15.6917 2.374182 17.768693 -3.020363
2011-10-10 06:52:35 51°14.25 2°55.324 15.7396 2.374905 17.773154 -3.020363
2011-10-10 06:52:42 51°14.267 2°55.31 15.7319 2.373149 17.758767 -3.020363
2011-10-10 06:52:46 51°14.277 2°55.302 15.6761 2.372736 17.761595 -3.020363
2011-10-10 06:52:51 51°14.289 2°55.291 15.6834 2.37129 17.753033 -3.020363
2011-10-10 06:52:56 51°14.301 2°55.28 15.6807 2.371703 17.757883 -3.020363
2011-10-10 06:53:01 51°14.313 2°55.269 15.6632 2.371703 17.757883 -3.020363
2011-10-10 06:53:06 51°14.325 2°55.258 15.6942 2.369947 17.740931 -3.020363
2011-10-10 06:53:12 51°14.34 2°55.244 15.6763 2.370567 17.740896 -3.020363
2011-10-10 06:53:17 51°14.352 2°55.233 15.6678 2.367365 17.711381 -3.020363
2011-10-10 06:53:23 51°14.366 2°55.22 15.6402 2.367778 17.716223 -3.020363
2011-10-10 06:53:28 51°14.379 2°55.209 15.6583 2.36313 17.680335 -3.020363
2011-10-10 06:53:34 51°14.393 2°55.194 15.6714 2.367469 17.720614 -3.020363
2011-10-10 06:53:38 51°14.403 2°55.186 15.6714 2.367469 17.720614 -3.020363
2011-10-10 06:53:42 51°14.413 2°55.177 15.6318 2.365713 17.70659 -3.020363
2011-10-10 06:53:47 51°14.425 2°55.166 15.6293 2.362304 17.678297 -3.020363
2011-10-10 06:53:52 51°14.438 2°55.152 15.6887 2.363337 17.690038 -3.020363
2011-10-10 06:53:58 51°14.453 2°55.138 15.6848 2.363854 17.697915 -3.020363
2011-10-10 06:54:02 51°14.463 2°55.127 15.6514 2.363854 17.697915 -3.020363
2011-10-10 06:54:07 51°14.475 2°55.114 15.7093 2.363647 17.696951 -3.020363
2011-10-10 06:54:12 51°14.489 2°55.101 15.6438 2.36406 17.697421 -3.020363
2011-10-10 06:54:17 51°14.502 2°55.088 15.7112 2.362924 17.69066 -3.020363
2011-10-10 06:54:22 51°14.516 2°55.076 15.6985 2.358483 17.657534 -3.020363
2011-10-10 06:54:26 51°14.527 2°55.065 15.6995 2.361581 17.67747 -3.020363
2011-10-10 06:54:31 51°14.541 2°55.052 15.6811 2.361581 17.67747 -3.020363
2011-10-10 06:54:36 51°14.554 2°55.037 15.6004 2.358483 17.651715 -3.020363
2011-10-10 06:54:41 51°14.567 2°55.022 15.6746 2.357553 17.641919 -3.020363
2011-10-10 06:54:46 51°14.58 2°55.007 15.6343 2.357966 17.645667 -3.020363
2011-10-10 06:54:50 51°14.59 2°54.995 15.6058 2.358586 17.648563 -3.020363
2011-10-10 06:54:55 51°14.603 2°54.981 15.672 2.354248 17.609405 -3.020363
2011-10-10 06:55:02 51°14.622 2°54.961 15.6547 2.35683 17.632002 -3.020363
2011-10-10 06:55:06 51°14.633 2°54.951 15.6117 2.35683 17.632002 -3.020363
2011-10-10 06:55:11 51°14.645 2°54.938 15.5839 2.353628 17.614122 -3.020363
2011-10-10 06:55:16 51°14.658 2°54.924 15.6433 2.357966 17.655848 -3.020363
2011-10-10 06:55:21 51°14.671 2°54.911 15.6363 2.355178 17.636625 -3.020363
2011-10-10 06:55:27 51°14.685 2°54.896 15.5606 2.351563 17.609533 -3.020363
2011-10-10 06:55:33 51°14.699 2°54.88 15.6026 2.351563 17.609533 -3.020363
2011-10-10 06:55:38 51°14.712 2°54.867 15.6133 2.347121 17.571681 -3.020363
2011-10-10 06:55:42 51°14.721 2°54.856 15.5714 2.344849 17.553785 -3.020363
2011-10-10 06:55:47 51°14.733 2°54.842 15.5074 2.333075 17.463453 -3.020363
2011-10-10 06:55:52 51°14.745 2°54.827 15.5068 2.332765 17.465597 -3.020363
2011-10-10 06:55:57 51°14.755 2°54.809 15.5078 2.32946 17.444275 -3.020363
2011-10-10 06:56:02 51°14.764 2°54.791 15.489 2.32946 17.444275 -3.020363
2011-10-10 06:56:06 51°14.771 2°54.775 15.4886 2.332146 17.469169 -3.020363
2011-10-10 06:56:12 51°14.779 2°54.752 15.4828 2.332249 17.471098 -3.020363
2011-10-10 06:56:18 51°14.785 2°54.727 15.4756 2.332972 17.483883 -3.020363
2011-10-10 06:56:22 51°14.788 2°54.71 15.4769 2.333695 17.498849 -3.020363
2011-10-10 06:56:27 51°14.791 2°54.688 15.4958 2.334935 17.519159 -3.020363
2011-10-10 06:56:32 51°14.792 2°54.666 15.5395 2.334935 17.519159 -3.020363
2011-10-10 06:56:38 51°14.791 2°54.639 15.509 2.333489 17.515979 -3.020363
2011-10-10 06:56:42 51°14.789 2°54.621 15.5171 2.333696 17.52239 -3.020363
2011-10-10 06:56:47 51°14.786 2°54.6 15.5115 2.332663 17.518617 -3.020363
2011-10-10 06:56:52 51°14.781 2°54.579 15.5295 2.33194 17.515213 -3.020363
2011-10-10 06:56:57 51°14.774 2°54.559 15.5383 2.331837 17.514726 -3.020363
2011-10-10 06:57:02 51°14.766 2°54.541 15.5419 2.331837 17.514726 -3.020363
2011-10-10 06:57:07 51°14.757 2°54.524 15.5453 2.329771 17.494123 -3.020363
2011-10-10 06:57:12 51°14.746 2°54.509 15.5295 2.328635 17.48153 -3.020363
2011-10-10 06:57:16 51°14.738 2°54.495 15.5407 3.670221 28.854419 -3.020363
2011-10-10 06:57:21 51°14.726 2°54.482 15.5539 3.808808 30.063263 -3.020363
2011-10-10 06:57:26 51°14.715 2°54.466 15.6226 3.837193 30.303744 -3.020363
2011-10-10 06:57:31 51°14.705 2°54.45 15.6034 3.837193 30.303744 -3.020363
2011-10-10 06:57:36 51°14.695 2°54.433 15.5844 3.852319 30.42971 -3.020363
2011-10-10 06:57:41 51°14.684 2°54.415 15.5749 3.86962 30.576741 -3.020363
2011-10-10 06:57:46 51°14.674 2°54.399 15.5704 3.879152 30.660575 -3.020363
2011-10-10 06:57:50 51°14.665 2°54.386 15.5642 3.891274 30.765321 -3.020363
2011-10-10 06:57:55 51°14.653 2°54.37 15.5715 3.896662 30.798019 -3.020363
2011-10-10 06:58:00 51°14.642 2°54.354 15.5565 3.896662 30.798019 -3.020363
2011-10-10 06:58:05 51°14.631 2°54.337 15.5665 3.889927 30.711979 -3.020363
2011-10-10 06:58:10 51°14.619 2°54.321 15.5645 3.902256 30.813328 -3.020363
2011-10-10 06:58:14 51°14.61 2°54.308 15.5818 3.896351 30.770356 -3.020363
2011-10-10 06:58:19 51°14.599 2°54.292 15.5817 3.908784 30.889303 -3.020363
2011-10-10 06:58:24 51°14.587 2°54.276 15.5431 3.924223 31.029044 -3.020363
2011-10-10 06:58:29 51°14.576 2°54.26 15.6247 3.924223 31.029044 -3.020363
2011-10-10 06:58:34 51°14.565 2°54.243 15.5396 3.944325 31.20676 -3.020363
2011-10-10 06:58:39 51°14.553 2°54.228 15.5759 3.95334 31.286868 -3.020363
2011-10-10 06:58:44 51°14.543 2°54.211 15.537 3.965775 31.397169 -3.020363
2011-10-10 06:58:49 51°14.531 2°54.195 15.5351 3.974584 31.468336 -3.020363
2011-10-10 06:58:54 51°14.521 2°54.179 15.5397 3.98163 31.531162 -3.020363
2011-10-10 06:58:59 51°14.511 2°54.162 15.5316 3.98163 31.531162 -3.020363
2011-10-10 06:59:04 51°14.5 2°54.144 15.5369 3.984325 31.559528 -3.020363
2011-10-10 06:59:10 51°14.488 2°54.123 15.5157 3.997279 31.677843 -3.020363
2011-10-10 06:59:14 51°14.48 2°54.108 15.5089 4.008679 31.782513 -3.020363
2011-10-10 06:59:19 51°14.47 2°54.09 15.5045 4.013342 31.829685 -3.020363
2011-10-10 06:59:26 51°14.455 2°54.066 15.4989 4.025261 31.94238 -3.020363
2011-10-10 06:59:30 51°14.446 2°54.051 15.4955 4.025261 31.94238 -3.020363
2011-10-10 06:59:34 51°14.438 2°54.037 15.4857 4.041532 32.090386 -3.020363
2011-10-10 06:59:38 51°14.429 2°54.022 15.4768 4.048684 32.155719 -3.020363
2011-10-10 06:59:44 51°14.417 2°54 15.4697 4.049409 32.166159 -3.020363
2011-10-10 06:59:50 51°14.405 2°53.977 15.4626 4.055835 32.231808 -3.020363
2011-10-10 06:59:54 51°14.396 2°53.962 15.4711 4.073766 32.396859 -3.020363
2011-10-10 06:59:59 51°14.386 2°53.943 15.47 4.073766 32.396859 -3.020363
2011-10-10 07:00:04 51°14.376 2°53.924 15.4545 4.080815 32.468181 -3.020363
2011-10-10 07:00:10 51°14.363 2°53.901 15.4503 4.081333 32.478192 -3.020363
2011-10-10 07:00:14 51°14.355 2°53.885 15.4613 4.08237 32.494164 -3.020363
2011-10-10 07:00:19 51°14.344 2°53.867 15.4422 4.086412 32.534809 -3.020363
2011-10-10 07:00:24 51°14.334 2°53.847 15.4494 4.093668 32.605385 -3.020363
2011-10-10 07:00:30 51°14.322 2°53.825 15.4489 4.092217 32.594527 -3.020363
2011-10-10 07:00:34 51°14.313 2°53.811 15.4291 4.092217 32.594527 -3.020363
2011-10-10 07:00:40 51°14.3 2°53.79 15.4219 4.20884 33.636909 -3.020363
2011-10-10 07:00:45 51°14.289 2°53.773 15.4215 4.21195 33.670305 -3.020363
2011-10-10 07:00:50 51°14.279 2°53.754 15.4139 4.212987 33.681675 -3.020363
2011-10-10 07:00:55 51°14.268 2°53.735 15.4081 4.214128 33.696785 -3.020363
2011-10-10 07:01:00 51°14.258 2°53.717 15.407 4.214128 33.696785 -3.020363
2011-10-10 07:01:05 51°14.247 2°53.7 15.4143 4.215165 33.710271 -3.020363
2011-10-10 07:01:10 51°14.236 2°53.681 15.395 4.215787 33.721462 -3.020363
2011-10-10 07:01:14 51°14.227 2°53.667 15.3907 4.217031 33.739627 -3.020363
2011-10-10 07:01:19 51°14.217 2°53.648 15.3914 4.217861 33.752682 -3.020363
2011-10-10 07:01:24 51°14.206 2°53.629 15.3817 4.218794 33.765964 -3.020363
2011-10-10 07:01:30 51°14.194 2°53.606 15.3768 4.218794 33.765964 -3.020363
2011-10-10 07:01:34 51°14.186 2°53.59 15.3769 4.218898 33.772536 -3.020363
2011-10-10 07:01:38 51°14.178 2°53.574 15.3803 4.218794 33.77655 -3.020363
2011-10-10 07:01:44 51°14.165 2°53.55 15.3863 4.21869 33.778446 -3.020363
2011-10-10 07:01:50 51°14.154 2°53.527 15.3714 4.218587 33.782461 -3.020363
2011-10-10 07:01:54 51°14.146 2°53.51 15.3847 4.218587 33.788112 -3.020363
2011-10-10 07:01:59 51°14.137 2°53.49 15.3774 4.218587 33.788112 -3.020363
2011-10-10 07:02:04 51°14.127 2°53.471 15.3752 4.218794 33.794915 -3.020363
2011-10-10 07:02:10 51°14.115 2°53.447 15.3714 4.219105 33.802648 -3.020363
2011-10-10 07:02:14 51°14.107 2°53.432 15.3583 4.218691 33.80247 -3.020363
2011-10-10 07:02:19 51°14.098 2°53.412 15.358 4.217239 33.790181 -3.020363
2011-10-10 07:02:24 51°14.088 2°53.393 15.3517 4.21641 33.784168 -3.020363
2011-10-10 07:02:30 51°14.076 2°53.37 15.348 4.21641 33.784168 -3.020363
2011-10-10 07:02:34 51°14.068 2°53.354 15.349 4.215269 33.77325 -3.020363
2011-10-10 07:02:39 51°14.059 2°53.334 15.3472 4.214647 33.770506 -3.020363
2011-10-10 07:02:44 51°14.049 2°53.315 15.3406 4.2133 33.760558 -3.020363
2011-10-10 07:02:50 51°14.038 2°53.291 15.3404 4.212367 33.757147 -3.020363
2011-10-10 07:02:54 51°14.03 2°53.275 15.3446 4.211537 33.753958 -3.020363
2011-10-10 07:02:59 51°14.02 2°53.255 15.3314 4.211537 33.753958 -3.020363
2011-10-10 07:03:04 51°14.011 2°53.235 15.3311 4.210915 33.752626 -3.020363
2011-10-10 07:03:09 51°14.002 2°53.214 15.337 4.209982 33.747801 -3.020363
2011-10-10 07:03:14 51°13.992 2°53.194 15.3346 4.208945 33.74134 -3.020363
2011-10-10 07:03:19 51°13.982 2°53.174 15.3287 4.207909 33.734879 -3.020363
2011-10-10 07:03:24 51°13.973 2°53.155 15.3399 4.207079 33.73098 -3.020363
2011-10-10 07:03:30 51°13.961 2°53.134 15.3328 4.207079 33.73098 -3.020363
2011-10-10 07:03:35 51°13.952 2°53.115 15.3191 4.205628 33.720096 -3.020363
2011-10-10 07:03:40 51°13.942 2°53.097 15.3168 4.196712 33.643755 -3.020363
2011-10-10 07:03:45 51°13.934 2°53.076 15.3149 4.195571 33.635655 -3.020363
2011-10-10 07:03:50 51°13.924 2°53.058 15.3163 4.194846 33.629859 -3.020363
2011-10-10 07:03:54 51°13.917 2°53.042 15.3199 4.193705 33.621053 -3.020363
2011-10-10 07:03:59 51°13.908 2°53.022 15.3148 4.193705 33.621053 -3.020363
2011-10-10 07:04:04 51°13.898 2°53.002 15.3037 4.192772 33.6134 -3.020363
2011-10-10 07:04:10 51°13.887 2°52.979 15.3082 4.193083 33.620412 -3.020363
2011-10-10 07:04:14 51°13.88 2°52.962 15.3012 4.19215 33.61628 -3.020363
2011-10-10 07:04:20 51°13.869 2°52.941 15.3104 4.192358 33.620251 -3.020363
2011-10-10 07:04:25 51°13.86 2°52.921 15.3062 4.191632 33.613749 -3.020363
2011-10-10 07:04:30 51°13.851 2°52.903 15.3014 4.191632 33.613749 -3.020363
2011-10-10 07:04:35 51°13.842 2°52.883 15.2963 4.19101 33.610994 -3.020363
2011-10-10 07:04:40 51°13.832 2°52.863 15.2951 4.19101 33.614517 -3.020363
2011-10-10 07:04:45 51°13.824 2°52.844 15.2928 4.190906 33.614997 -3.020363
2011-10-10 07:04:50 51°13.814 2°52.824 15.3013 4.190699 33.615253 -3.020363
2011-10-10 07:04:54 51°13.808 2°52.807 15.2986 4.190595 33.616438 -3.020363
2011-10-10 07:04:59 51°13.799 2°52.787 15.2956 4.190595 33.616438 -3.020363
2011-10-10 07:05:04 51°13.79 2°52.766 15.2916 4.19101 33.620859 -3.020363
2011-10-10 07:05:10 51°13.78 2°52.741 15.3024 4.190077 33.614611 -3.020363
2011-10-10 07:05:14 51°13.773 2°52.724 15.293 4.190596 33.622782 -3.020363
2011-10-10 07:05:19 51°13.765 2°52.704 15.2828 4.190596 33.624897 -3.020363
2011-10-10 07:05:24 51°13.757 2°52.682 15.2771 4.190285 33.622109 -3.020363
2011-10-10 07:05:29 51°13.749 2°52.662 15.2758 4.190285 33.622109 -3.020363
2011-10-10 07:05:34 51°13.74 2°52.641 15.2772 4.190285 33.622109 -3.020363
2011-10-10 07:05:39 51°13.731 2°52.62 15.2838 4.190285 33.62352 -3.020363
2011-10-10 07:05:44 51°13.723 2°52.599 15.2756 4.190285 33.622815 -3.020363
2011-10-10 07:05:50 51°13.713 2°52.573 15.2725 4.190803 33.628872 -3.020363
2011-10-10 07:05:54 51°13.706 2°52.557 15.2694 4.191114 33.636598 -3.020363
2011-10-10 07:06:00 51°13.695 2°52.532 15.2738 4.192255 33.651059 -3.020363
2011-10-10 07:06:06 51°13.685 2°52.508 15.2787 4.192255 33.651059 -3.020363
2011-10-10 07:06:10 51°13.678 2°52.491 15.2736 4.192358 33.654813 -3.020363
2011-10-10 07:06:15 51°13.67 2°52.469 15.2686 4.192462 33.657156 -3.020363
2011-10-10 07:06:20 51°13.661 2°52.447 15.2612 4.192566 33.659498 -3.020363
2011-10-10 07:06:26 51°13.65 2°52.424 15.2679 4.19381 33.673484 -3.020363
2011-10-10 07:06:31 51°13.641 2°52.404 15.2757 4.19381 33.673484 -3.020363
2011-10-10 07:06:36 51°13.633 2°52.384 15.2694 4.193706 33.673967 -3.020363
2011-10-10 07:06:41 51°13.624 2°52.365 15.2651 4.194017 33.677464 -3.020363
2011-10-10 07:06:46 51°13.617 2°52.345 15.2666 4.194536 33.683529 -3.020363
2011-10-10 07:06:51 51°13.608 2°52.325 15.2639 4.195572 33.693538 -3.020363
2011-10-10 07:06:56 51°13.601 2°52.305 15.2709 4.195572 33.695659 -3.020363
2011-10-10 07:07:01 51°13.592 2°52.284 15.2589 4.195572 33.695659 -3.020363
2011-10-10 07:07:06 51°13.584 2°52.263 15.2587 4.195883 33.69845 -3.020363
2011-10-10 07:07:10 51°13.577 2°52.247 15.2559 4.195987 33.698673 -3.020363
2011-10-10 07:07:15 51°13.568 2°52.226 15.2582 4.196713 33.705893 -3.020363
2011-10-10 07:07:20 51°13.56 2°52.205 15.2542 4.197024 33.709391 -3.020363
2011-10-10 07:07:25 51°13.551 2°52.182 15.259 4.197335 33.71289 -3.020363
2011-10-10 07:07:30 51°13.543 2°52.161 15.2595 4.197335 33.71289 -3.020363
2011-10-10 07:07:34 51°13.536 2°52.144 15.251 4.19775 33.719443 -3.020363
2011-10-10 07:07:39 51°13.527 2°52.123 15.2565 4.198994 33.732026 -3.020363
2011-10-10 07:07:44 51°13.519 2°52.101 15.2553 4.198786 33.732289 -3.020363
2011-10-10 07:07:49 51°13.51 2°52.081 15.2566 4.199408 33.73929 -3.020363
2011-10-10 07:07:54 51°13.502 2°52.059 15.2609 4.200134 33.746513 -3.020363
2011-10-10 07:07:59 51°13.494 2°52.038 15.2617 4.200134 33.746513 -3.020363
2011-10-10 07:08:04 51°13.486 2°52.016 15.2557 4.199305 33.739068 -3.020363
2011-10-10 07:08:10 51°13.476 2°51.989 15.2568 4.200134 33.747931 -3.020363
2011-10-10 07:08:14 51°13.47 2°51.971 15.2556 4.200549 33.751654 -3.020363
2011-10-10 07:08:19 51°13.462 2°51.949 15.2552 4.201171 33.757948 -3.020363
2011-10-10 07:08:25 51°13.452 2°51.922 15.2496 4.201171 33.757948 -3.020363
2011-10-10 07:08:30 51°13.443 2°51.9 15.2537 4.201171 33.757948 -3.020363
2011-10-10 07:08:34 51°13.437 2°51.884 15.2525 4.201378 33.7591 -3.020363
2011-10-10 07:08:38 51°13.431 2°51.866 15.2528 4.201378 33.758391 -3.020363
2011-10-10 07:08:44 51°13.421 2°51.84 15.2515 4.201586 33.761671 -3.020363
2011-10-10 07:08:50 51°13.412 2°51.814 15.2554 4.201689 33.763311 -3.020363
2011-10-10 07:08:54 51°13.405 2°51.797 15.2439 4.201897 33.765882 -3.020363
2011-10-10 07:08:59 51°13.396 2°51.775 15.2515 4.201897 33.765882 -3.020363
2011-10-10 07:09:04 51°13.388 2°51.754 15.2559 4.202104 33.769162 -3.020363
2011-10-10 07:09:10 51°13.377 2°51.728 15.2538 4.202622 33.773817 -3.020363
2011-10-10 07:09:15 51°13.369 2°51.708 15.2545 4.202311 33.771733 -3.020363
2011-10-10 07:09:20 51°13.361 2°51.687 15.2594 4.202934 33.778029 -3.020363
2011-10-10 07:09:25 51°13.352 2°51.666 15.2657 4.20283 33.778517 -3.020363
2011-10-10 07:09:30 51°13.343 2°51.646 15.2674 4.20283 33.778517 -3.020363
2011-10-10 07:09:34 51°13.337 2°51.628 15.2747 4.203659 33.786675 -3.020363
2011-10-10 07:09:39 51°13.328 2°51.607 15.2836 4.204385 33.793193 -3.020363
2011-10-10 07:09:44 51°13.319 2°51.586 15.2934 4.205214 33.798512 -3.020363
2011-10-10 07:09:49 51°13.311 2°51.564 15.302 4.205836 33.802679 -3.020363
2011-10-10 07:09:54 51°13.302 2°51.543 15.3096 4.207703 33.818019 -3.020363
2011-10-10 07:09:59 51°13.294 2°51.522 15.3176 4.207703 33.818019 -3.020363
2011-10-10 07:10:04 51°13.285 2°51.5 15.3255 4.209776 33.8338 -3.020363
2011-10-10 07:10:09 51°13.277 2°51.478 15.3364 4.211331 33.844214 -3.020363
2011-10-10 07:10:14 51°13.269 2°51.456 15.3528 4.213197 33.855287 -3.020363
2011-10-10 07:10:19 51°13.261 2°51.434 15.3591 4.214441 33.859351 -3.020363
2011-10-10 07:10:24 51°13.253 2°51.411 15.3694 4.216722 33.872721 -3.020363
2011-10-10 07:10:30 51°13.243 2°51.385 15.3799 4.216722 33.872721 -3.020363
2011-10-10 07:10:34 51°13.236 2°51.368 15.3875 4.218381 33.880504 -3.020363
2011-10-10 07:10:39 51°13.228 2°51.346 15.3957 4.220558 33.891516 -3.020363
2011-10-10 07:10:44 51°13.219 2°51.325 15.4028 4.222321 33.898092 -3.020363
2011-10-10 07:10:49 51°13.211 2°51.303 15.4094 4.224912 33.911396 -3.020363
2011-10-10 07:10:54 51°13.202 2°51.283 15.416 4.226571 33.916326 -3.020363
2011-10-10 07:10:59 51°13.194 2°51.262 15.4225 4.226571 33.916326 -3.020363
2011-10-10 07:11:04 51°13.185 2°51.242 15.4263 4.227919 33.918465 -3.020363
2011-10-10 07:11:10 51°13.175 2°51.216 15.4321 4.228437 33.913879 -3.020363
2011-10-10 07:11:14 51°13.168 2°51.199 15.4346 4.229889 33.917659 -3.020363
2011-10-10 07:11:19 51°13.16 2°51.177 15.4399 4.23248 33.932367 -3.020363
2011-10-10 07:11:24 51°13.152 2°51.156 15.4432 4.234969 33.948273 -3.020363
2011-10-10 07:11:30 51°13.142 2°51.13 15.449 4.236628 33.955323 -3.020363
2011-10-10 07:11:34 51°13.135 2°51.112 15.4554 4.236628 33.955323 -3.020363
2011-10-10 07:11:39 51°13.126 2°51.091 15.4587 4.237561 33.958 -3.020363
2011-10-10 07:11:45 51°13.116 2°51.066 15.4661 4.239634 33.970182 -3.020363
2011-10-10 07:11:50 51°13.108 2°51.045 15.472 4.239945 33.967996 -3.020363
2011-10-10 07:11:54 51°13.101 2°51.028 15.4796 4.2415 33.977662 -3.020363
2011-10-10 07:11:59 51°13.093 2°51.007 15.4798 4.2415 33.977662 -3.020363
2011-10-10 07:12:04 51°13.085 2°50.986 15.4844 4.242641 33.982903 -3.020363
2011-10-10 07:12:09 51°13.076 2°50.965 15.4867 4.243159 33.982574 -3.020363
2011-10-10 07:12:14 51°13.068 2°50.943 15.49 4.244196 33.986176 -3.020363
2011-10-10 07:12:19 51°13.06 2°50.922 15.4951 4.245025 33.98792 -3.020363
2011-10-10 07:12:24 51°13.051 2°50.9 15.4987 4.24544 33.985244 -3.020363
2011-10-10 07:12:30 51°13.04 2°50.875 15.5046 4.24544 33.985244 -3.020363
2011-10-10 07:12:34 51°13.033 2°50.858 15.5076 4.245855 33.983988 -3.020363
2011-10-10 07:12:39 51°13.025 2°50.837 15.5113 4.245854 33.979022 -3.020363
2011-10-10 07:12:44 51°13.016 2°50.816 15.5168 4.246891 33.984751 -3.020363
2011-10-10 07:12:50 51°13.007 2°50.79 15.5195 4.247306 33.984914 -3.020363
2011-10-10 07:12:54 51°12.999 2°50.774 15.5264 4.248446 33.99086 -3.020363
2011-10-10 07:13:00 51°12.989 2°50.748 15.5279 4.248446 33.99086 -3.020363
2011-10-10 07:13:05 51°12.98 2°50.726 15.5338 4.248861 33.989604 -3.020363
2011-10-10 07:13:10 51°12.972 2°50.705 15.5381 4.250105 33.997894 -3.020363
2011-10-10 07:13:14 51°12.964 2°50.687 15.542 4.251142 34.002201 -3.020363
2011-10-10 07:13:18 51°12.957 2°50.67 15.5453 4.250624 33.994729 -3.020363
2011-10-10 07:13:24 51°12.946 2°50.645 15.549 4.252179 34.00367 -3.020363
2011-10-10 07:13:30 51°12.936 2°50.621 15.5558 4.252179 34.00367 -3.020363
2011-10-10 07:13:34 51°12.929 2°50.604 15.5609 4.253112 34.007758 -3.020363
2011-10-10 07:13:39 51°12.921 2°50.583 15.5648 4.253838 34.009991 -3.020363
2011-10-10 07:13:44 51°12.912 2°50.562 15.5721 4.253838 34.005738 -3.020363
2011-10-10 07:13:49 51°12.902 2°50.542 15.5817 4.253215 33.995927 -3.020363
2011-10-10 07:13:54 51°12.894 2°50.52 15.5907 4.253941 33.997453 -3.020363
2011-10-10 07:13:59 51°12.885 2°50.499 15.5941 4.253941 33.997453 -3.020363
2011-10-10 07:14:04 51°12.876 2°50.477 15.6019 4.254771 34.001322 -3.020363
2011-10-10 07:14:09 51°12.868 2°50.456 15.6098 4.254978 33.998216 -3.020363
2011-10-10 07:14:14 51°12.86 2°50.435 15.6208 4.256326 34.006007 -3.020363
2011-10-10 07:14:20 51°12.85 2°50.409 15.6259 4.257985 34.014449 -3.020363
2011-10-10 07:14:24 51°12.843 2°50.391 15.6353 4.25871 34.014557 -3.020363
2011-10-10 07:14:29 51°12.835 2°50.371 15.6444 4.25871 34.014557 -3.020363
2011-10-10 07:14:34 51°12.827 2°50.349 15.6521 4.259125 34.010472 -3.020363
2011-10-10 07:14:40 51°12.817 2°50.324 15.6589 4.260162 34.013357 -3.020363
2011-10-10 07:14:45 51°12.809 2°50.302 15.666 4.262132 34.023863 -3.020363
2011-10-10 07:14:50 51°12.8 2°50.28 15.6694 4.262443 34.01744 -3.020363
2011-10-10 07:14:54 51°12.794 2°50.263 15.6752 4.263168 34.016841 -3.020363
2011-10-10 07:14:59 51°12.785 2°50.241 15.6792 4.263168 34.016841 -3.020363
2011-10-10 07:15:04 51°12.776 2°50.22 15.6825 4.264413 34.018747 -3.020363
2011-10-10 07:15:09 51°12.768 2°50.199 15.687 4.266383 34.029952 -3.020363
2011-10-10 07:15:14 51°12.759 2°50.178 15.6861 4.267419 34.03142 -3.020363
2011-10-10 07:15:19 51°12.751 2°50.155 15.6882 4.268871 34.037292 -3.020363
2011-10-10 07:15:24 51°12.742 2°50.134 15.6888 4.27053 34.045718 -3.020363
2011-10-10 07:15:29 51°12.734 2°50.113 15.6878 4.27053 34.045718 -3.020363
2011-10-10 07:15:34 51°12.725 2°50.092 15.6873 4.267937 34.016962 -3.020363
2011-10-10 07:15:40 51°12.714 2°50.067 15.6834 4.268352 34.015715 -3.020363
2011-10-10 07:15:45 51°12.706 2°50.047 15.6805 4.268767 34.014468 -3.020363
2011-10-10 07:15:50 51°12.698 2°50.025 15.6774 4.269389 34.017186 -3.020363
2011-10-10 07:15:54 51°12.691 2°50.008 15.671 4.269907 34.018981 -3.020363
2011-10-10 07:15:59 51°12.682 2°49.987 15.6697 4.269907 34.018981 -3.020363
2011-10-10 07:16:04 51°12.673 2°49.965 15.6661 4.270115 34.019416 -3.020363
2011-10-10 07:16:09 51°12.665 2°49.944 15.6627 4.270426 34.020775 -3.020363
2011-10-10 07:16:14 51°12.656 2°49.922 15.6584 4.270218 34.019634 -3.020363
2011-10-10 07:16:19 51°12.647 2°49.9 15.654 4.269804 34.018057 -3.020363
2011-10-10 07:16:24 51°12.638 2°49.878 15.6557 4.2697 34.019957 -3.020363
2011-10-10 07:16:29 51°12.629 2°49.856 15.6524 4.2697 34.019957 -3.020363
2011-10-10 07:16:34 51°12.62 2°49.835 15.6484 4.269804 34.023705 -3.020363
2011-10-10 07:16:39 51°12.612 2°49.813 15.645 4.269285 34.021205 -3.020363
2011-10-10 07:16:44 51°12.603 2°49.792 15.6425 4.261301 33.952901 -3.020363
2011-10-10 07:16:50 51°12.593 2°49.767 15.6426 4.259953 33.944418 -3.020363
2011-10-10 07:16:54 51°12.587 2°49.749 15.6425 4.259331 33.941695 -3.020363
2011-10-10 07:16:59 51°12.578 2°49.728 15.6443 4.259331 33.941695 -3.020363
2011-10-10 07:17:04 51°12.57 2°49.707 15.6387 4.259331 33.943809 -3.020363
2011-10-10 07:17:10 51°12.56 2°49.682 15.6348 4.258502 33.937828 -3.020363
2011-10-10 07:17:14 51°12.553 2°49.665 15.6374 4.258502 33.940647 -3.020363
2011-10-10 07:17:19 51°12.545 2°49.644 15.6365 4.257258 33.933085 -3.020363
2011-10-10 07:17:24 51°12.537 2°49.622 15.6332 4.256947 33.931723 -3.020363
2011-10-10 07:17:30 51°12.527 2°49.595 15.6346 4.256947 33.931723 -3.020363
2011-10-10 07:17:34 51°12.52 2°49.577 15.6364 4.256532 33.929437 -3.020363
2011-10-10 07:17:39 51°12.512 2°49.555 15.6318 4.25591 33.925302 -3.020363
2011-10-10 07:17:45 51°12.503 2°49.527 15.6331 4.255806 33.926493 -3.020363
2011-10-10 07:17:50 51°12.495 2°49.504 15.6299 4.255184 33.921653 -3.020363
2011-10-10 07:17:54 51°12.488 2°49.486 15.624 4.254873 33.920995 -3.020363
2011-10-10 07:17:59 51°12.48 2°49.464 15.624 4.254873 33.920995 -3.020363
2011-10-10 07:18:04 51°12.472 2°49.442 15.6223 4.254873 33.922405 -3.020363
2011-10-10 07:18:10 51°12.462 2°49.416 15.6225 4.254458 33.918708 -3.020363
2011-10-10 07:18:14 51°12.456 2°49.398 15.6313 4.254147 33.915936 -3.020363
2011-10-10 07:18:19 51°12.447 2°49.375 15.6437 4.254147 33.915232 -3.020363
2011-10-10 07:18:24 51°12.439 2°49.353 15.6453 4.254147 33.913822 -3.020363
2011-10-10 07:18:29 51°12.432 2°49.331 15.6462 4.254147 33.913822 -3.020363
2011-10-10 07:18:34 51°12.424 2°49.308 15.6417 4.254043 33.912898 -3.020363
2011-10-10 07:18:39 51°12.416 2°49.286 15.6488 4.253525 33.911096 -3.020363
2011-10-10 07:18:44 51°12.408 2°49.263 15.6514 4.253318 33.909953 -3.020363
2011-10-10 07:18:49 51°12.401 2°49.24 15.65 4.252592 33.902076 -3.020363
2011-10-10 07:18:54 51°12.393 2°49.218 15.6441 4.250311 33.876822 -3.020363
2011-10-10 07:18:59 51°12.386 2°49.194 15.6459 4.250311 33.876822 -3.020363
2011-10-10 07:19:04 51°12.378 2°49.172 15.6453 4.248444 33.856679 -3.020363
2011-10-10 07:19:10 51°12.369 2°49.144 15.6381 4.246993 33.840937 -3.020363
2011-10-10 07:19:14 51°12.364 2°49.125 15.6396 4.245956 33.829595 -3.020363
2011-10-10 07:19:19 51°12.357 2°49.102 15.6454 4.245126 33.821506 -3.020363
2011-10-10 07:19:24 51°12.349 2°49.079 15.6418 4.245126 33.820804 -3.020363
2011-10-10 07:19:30 51°12.34 2°49.051 15.6326 4.245126 33.820804 -3.020363
2011-10-10 07:19:34 51°12.334 2°49.033 15.6359 4.244919 33.818957 -3.020363
2011-10-10 07:19:39 51°12.327 2°49.01 15.6341 4.245126 33.821506 -3.020363
2011-10-10 07:19:44 51°12.319 2°48.987 15.6349 4.245126 33.822209 -3.020363
2011-10-10 07:19:50 51°12.31 2°48.96 15.6315 4.245437 33.825681 -3.020363
2011-10-10 07:19:54 51°12.305 2°48.941 15.6376 4.245437 33.826383 -3.020363
2011-10-10 07:19:59 51°12.298 2°48.918 15.628 4.245437 33.826383 -3.020363
2011-10-10 07:20:04 51°12.29 2°48.894 15.6302 4.245541 33.826604 -3.020363
2011-10-10 07:20:10 51°12.282 2°48.866 15.6306 4.24523 33.826644 -3.020363
2011-10-10 07:20:14 51°12.276 2°48.848 15.6261 4.245334 33.828973 -3.020363
2011-10-10 07:20:19 51°12.269 2°48.824 15.6272 4.244608 33.823211 -3.020363
2011-10-10 07:20:24 51°12.262 2°48.801 15.6107 4.244815 33.825058 -3.020363
2011-10-10 07:20:29 51°12.255 2°48.778 15.6034 4.244712 33.824837 -3.020363
2011-10-10 07:20:34 51°12.247 2°48.756 15.6045 4.244712 33.824837 -3.020363
2011-10-10 07:20:39 51°12.24 2°48.732 15.5873 4.244504 33.824395 -3.020363
2011-10-10 07:20:44 51°12.233 2°48.709 15.5812 4.244297 33.823953 -3.020363
2011-10-10 07:20:49 51°12.226 2°48.686 15.5854 4.243986 33.823992 -3.020363
2011-10-10 07:20:54 51°12.219 2°48.663 15.5726 4.243156 33.818711 -3.020363
2011-10-10 07:20:59 51°12.212 2°48.641 15.5753 4.243156 33.818711 -3.020363
2011-10-10 07:21:04 51°12.204 2°48.618 15.5742 4.242327 33.81624 -3.020363
2011-10-10 07:21:10 51°12.196 2°48.59 15.5524 4.241601 33.814692 -3.020363
2011-10-10 07:21:14 51°12.191 2°48.572 15.5519 4.240565 33.811778 -3.020363
2011-10-10 07:21:19 51°12.184 2°48.549 15.5476 4.239424 33.807939 -3.020363
2011-10-10 07:21:24 51°12.177 2°48.526 15.5412 4.238284 33.802693 -3.020363
2011-10-10 07:21:30 51°12.168 2°48.498 15.5435 4.238284 33.802693 -3.020363
2011-10-10 07:21:34 51°12.163 2°48.48 15.5428 4.237973 33.806247 -3.020363
2011-10-10 07:21:39 51°12.156 2°48.458 15.5562 4.236521 33.796821 -3.020363
2011-10-10 07:21:44 51°12.149 2°48.435 15.5383 4.235588 33.794828 -3.020363
2011-10-10 07:21:50 51°12.141 2°48.407 15.5435 4.23424 33.787027 -3.020363
2011-10-10 07:21:54 51°12.135 2°48.389 15.5474 4.232996 33.782961 -3.020363
2011-10-10 07:21:59 51°12.129 2°48.366 15.5393 4.232996 33.782961 -3.020363
2011-10-10 07:22:04 51°12.121 2°48.343 15.5409 4.232374 33.783038 -3.020363
2011-10-10 07:22:10 51°12.113 2°48.316 15.5499 4.231441 33.779636 -3.020363
2011-10-10 07:22:14 51°12.108 2°48.298 15.5455 4.23113 33.778268 -3.020363
2011-10-10 07:22:19 51°12.101 2°48.276 15.5499 4.230716 33.775271 -3.020363
2011-10-10 07:22:24 51°12.094 2°48.253 15.542 4.230716 33.775271 -3.020363
2011-10-10 07:22:30 51°12.086 2°48.225 15.5424 4.230301 33.772274 -3.020363
2011-10-10 07:22:34 51°12.081 2°48.207 15.5418 4.230301 33.772274 -3.020363
2011-10-10 07:22:39 51°12.074 2°48.184 15.5407 4.230405 33.775309 -3.020363
2011-10-10 07:22:44 51°12.067 2°48.162 15.5508 4.131087 32.891566 -3.020363
2011-10-10 07:22:49 51°12.061 2°48.139 15.539 4.264932 34.082178 -3.020363
2011-10-10 07:22:54 51°12.053 2°48.117 15.5372 4.265243 34.082827 -3.020363
2011-10-10 07:22:59 51°12.046 2°48.094 15.5601 4.265243 34.082827 -3.020363
2011-10-10 07:23:04 51°12.039 2°48.071 15.5826 4.26545 34.0861 -3.020363
2011-10-10 07:23:09 51°12.032 2°48.048 15.5771 4.265347 34.088013 -3.020363
2011-10-10 07:23:14 51°12.024 2°48.025 15.5832 4.265243 34.087797 -3.020363
2011-10-10 07:23:19 51°12.017 2°48.002 15.5863 4.265139 34.08829 -3.020363
2011-10-10 07:23:24 51°12.01 2°47.979 15.587 4.265347 34.089433 -3.020363
2011-10-10 07:23:30 51°12.002 2°47.952 15.5753 4.265347 34.089433 -3.020363
2011-10-10 07:23:34 51°11.997 2°47.933 15.5707 4.265865 34.093356 -3.020363
2011-10-10 07:23:39 51°11.99 2°47.91 15.5804 4.266902 34.096229 -3.020363
2011-10-10 07:23:44 51°11.983 2°47.887 15.5476 4.268457 34.101604 -3.020363
2011-10-10 07:23:50 51°11.976 2°47.859 15.5423 4.270012 34.106977 -3.020363
2011-10-10 07:23:54 51°11.97 2°47.84 15.5423 4.271464 34.113551 -3.020363
2011-10-10 07:23:59 51°11.963 2°47.816 15.5456 4.272501 34.119971 -3.020363
2011-10-10 07:24:04 51°11.957 2°47.793 15.5886 4.272501 34.119971 -3.020363
2011-10-10 07:24:10 51°11.949 2°47.764 15.5467 4.272605 34.123027 -3.020363
2011-10-10 07:24:14 51°11.943 2°47.745 15.5386 4.272086 34.121237 -3.020363
2011-10-10 07:24:19 51°11.937 2°47.722 15.5228 4.270842 34.117936 -3.020363
2011-10-10 07:24:24 51°11.93 2°47.698 15.5217 4.268976 34.112627 -3.020363
2011-10-10 07:24:30 51°11.923 2°47.67 15.5171 4.268976 34.112627 -3.020363
2011-10-10 07:24:34 51°11.918 2°47.65 15.5186 4.267835 34.108829 -3.020363
2011-10-10 07:24:39 51°11.911 2°47.627 15.5258 4.267213 34.099009 -3.020363
2011-10-10 07:24:44 51°11.904 2°47.603 15.517 4.267213 34.097588 -3.020363
2011-10-10 07:24:50 51°11.896 2°47.575 15.52 4.266902 34.101911 -3.020363
2011-10-10 07:24:54 51°11.891 2°47.556 15.522 4.266384 34.105803 -3.020363
2011-10-10 07:24:59 51°11.884 2°47.533 15.5205 4.266384 34.105803 -3.020363
2011-10-10 07:25:04 51°11.876 2°47.511 15.5228 4.265762 34.107349 -3.020363
2011-10-10 07:25:09 51°11.869 2°47.488 15.5242 4.26514 34.106764 -3.020363
2011-10-10 07:25:14 51°11.862 2°47.466 15.5844 4.264518 34.104756 -3.020363
2011-10-10 07:25:19 51°11.854 2°47.443 15.5476 4.263895 34.100615 -3.020363
2011-10-10 07:25:24 51°11.847 2°47.42 15.5202 4.263377 34.095268 -3.020363
2011-10-10 07:25:30 51°11.838 2°47.393 15.5316 4.263377 34.095268 -3.020363
2011-10-10 07:25:35 51°11.831 2°47.37 15.5356 4.26317 34.090571 -3.020363
2011-10-10 07:25:40 51°11.824 2°47.348 15.5428 4.262755 34.088995 -3.020363
2011-10-10 07:25:45 51°11.817 2°47.325 15.5382 4.262444 34.085503 -3.020363
2011-10-10 07:25:50 51°11.81 2°47.303 15.5181 4.262236 34.076546 -3.020363
2011-10-10 07:25:54 51°11.804 2°47.285 15.5454 4.26234 34.073922 -3.020363
2011-10-10 07:25:59 51°11.796 2°47.264 15.5378 4.26234 34.073922 -3.020363
2011-10-10 07:26:04 51°11.789 2°47.241 15.533 4.262133 34.073489 -3.020363
2011-10-10 07:26:10 51°11.781 2°47.214 15.55 4.261925 34.071635 -3.020363
2011-10-10 07:26:14 51°11.775 2°47.196 15.5491 4.261718 34.066942 -3.020363
2011-10-10 07:26:19 51°11.768 2°47.174 15.5048 4.261718 34.066942 -3.020363
2011-10-10 07:26:24 51°11.76 2°47.151 15.5537 4.261821 34.071418 -3.020363
2011-10-10 07:26:30 51°11.752 2°47.125 15.5446 4.261821 34.071418 -3.020363
2011-10-10 07:26:34 51°11.747 2°47.107 15.5801 4.26151 34.069348 -3.020363
2011-10-10 07:26:38 51°11.741 2°47.09 15.5723 4.26151 34.069348 -3.020363
2011-10-10 07:26:44 51°11.733 2°47.062 15.5193 4.26151 34.064379 -3.020363
2011-10-10 07:26:50 51°11.724 2°47.035 15.5231 4.261614 34.064596 -3.020363
2011-10-10 07:26:54 51°11.719 2°47.017 15.5163 4.261407 34.068421 -3.020363
2011-10-10 07:26:59 51°11.712 2°46.994 15.5346 4.261407 34.068421 -3.020363
2011-10-10 07:27:04 51°11.705 2°46.971 15.5571 4.261303 34.066075 -3.020363
2011-10-10 07:27:10 51°11.697 2°46.945 15.5527 4.261407 34.061323 -3.020363
2011-10-10 07:27:14 51°11.691 2°46.927 15.5304 4.261614 34.058919 -3.020363
2011-10-10 07:27:19 51°11.684 2°46.905 15.5279 4.261718 34.065522 -3.020363
2011-10-10 07:27:24 51°11.678 2°46.882 15.5248 4.261407 34.070552 -3.020363
2011-10-10 07:27:29 51°11.671 2°46.86 15.5445 4.261407 34.070552 -3.020363
2011-10-10 07:27:34 51°11.664 2°46.837 15.5118 4.261199 34.070118 -3.020363
2011-10-10 07:27:39 51°11.658 2°46.814 15.534 4.261096 34.065641 -3.020363
2011-10-10 07:27:44 51°11.652 2°46.79 15.5265 4.261199 34.062309 -3.020363
2011-10-10 07:27:49 51°11.645 2°46.767 15.5352 4.26151 34.064379 -3.020363
2011-10-10 07:27:54 51°11.639 2°46.743 15.5339 4.26151 34.068638 -3.020363
2011-10-10 07:27:59 51°11.632 2°46.721 15.5503 4.26151 34.068638 -3.020363
2011-10-10 07:28:04 51°11.625 2°46.697 15.5367 4.261407 34.069841 -3.020363
2011-10-10 07:28:09 51°11.619 2°46.674 15.5367 4.261407 34.072682 -3.020363
2011-10-10 07:28:14 51°11.612 2°46.65 15.546 4.261303 34.074596 -3.020363
2011-10-10 07:28:19 51°11.606 2°46.626 15.5407 4.2612 34.074379 -3.020363
2011-10-10 07:28:24 51°11.599 2°46.604 15.5397 4.261303 34.073886 -3.020363
2011-10-10 07:28:30 51°11.591 2°46.575 15.5537 4.261303 34.073886 -3.020363
2011-10-10 07:28:34 51°11.585 2°46.557 15.5535 4.259022 34.050655 -3.020363
2011-10-10 07:28:39 51°11.578 2°46.534 15.5509 4.261822 34.073549 -3.020363
2011-10-10 07:28:44 51°11.571 2°46.511 15.5819 4.262029 34.073982 -3.020363
2011-10-10 07:28:50 51°11.563 2°46.483 15.5663 4.262236 34.073705 -3.020363
2011-10-10 07:28:54 51°11.557 2°46.465 15.5714 4.262547 34.075776 -3.020363
2011-10-10 07:28:59 51°11.55 2°46.442 15.5652 4.262547 34.075776 -3.020363
2011-10-10 07:29:04 51°11.542 2°46.419 15.5518 4.262755 34.076209 -3.020363
2011-10-10 07:29:10 51°11.534 2°46.392 15.564 4.263066 34.074019 -3.020363
2011-10-10 07:29:14 51°11.528 2°46.374 15.596 4.263377 34.073959 -3.020363
2011-10-10 07:29:19 51°11.521 2°46.351 15.5797 4.263895 34.073623 -3.020363
2011-10-10 07:29:24 51°11.514 2°46.327 15.5762 4.26431 34.07378 -3.020363
2011-10-10 07:29:29 51°11.508 2°46.305 15.5757 4.26431 34.07378 -3.020363
2011-10-10 07:29:34 51°11.501 2°46.282 15.5978 4.264828 34.076993 -3.020363
2011-10-10 07:29:40 51°11.493 2°46.255 15.5932 4.265036 34.080265 -3.020363
2011-10-10 07:29:45 51°11.487 2°46.232 15.6154 4.265139 34.081191 -3.020363
2011-10-10 07:29:50 51°11.481 2°46.21 15.6239 4.265554 34.078509 -3.020363
2011-10-10 07:29:54 51°11.476 2°46.192 15.6081 4.266072 34.080302 -3.020363
2011-10-10 07:29:59 51°11.471 2°46.169 15.5988 4.266072 34.080302 -3.020363
2011-10-10 07:30:04 51°11.465 2°46.147 15.5909 4.266487 34.082587 -3.020363
2011-10-10 07:30:09 51°11.46 2°46.124 15.6133 4.266902 34.082744 -3.020363
2011-10-10 07:30:14 51°11.454 2°46.101 15.592 4.267316 34.079354 -3.020363
2011-10-10 07:30:19 51°11.449 2°46.078 15.5937 4.267938 34.079236 -3.020363
2011-10-10 07:30:24 51°11.443 2°46.054 15.6101 4.26856 34.079827 -3.020363
2011-10-10 07:30:29 51°11.437 2°46.03 15.6206 4.26856 34.079827 -3.020363
2011-10-10 07:30:34 51°11.432 2°46.006 15.6158 4.268975 34.082111 -3.020363
2011-10-10 07:30:39 51°11.427 2°45.982 15.6076 4.26939 34.087941 -3.020363
2011-10-10 07:30:44 51°11.421 2°45.959 15.6079 4.269701 34.090718 -3.020363
2011-10-10 07:30:49 51°11.415 2°45.935 15.6221 4.269908 34.093278 -3.020363
2011-10-10 07:30:54 51°11.409 2°45.911 15.6363 4.270012 34.092785 -3.020363
2011-10-10 07:30:59 51°11.404 2°45.887 15.6385 4.270012 34.092785 -3.020363
2011-10-10 07:31:04 51°11.398 2°45.864 15.6141 4.270323 34.08918 -3.020363
2011-10-10 07:31:10 51°11.391 2°45.835 15.6155 4.270842 34.090262 -3.020363
2011-10-10 07:31:14 51°11.387 2°45.816 15.6125 4.271153 34.093748 -3.020363
2011-10-10 07:31:19 51°11.381 2°45.792 15.6165 4.27136 34.09418 -3.020363
2011-10-10 07:31:24 51°11.376 2°45.768 15.603 4.271671 34.091994 -3.020363
2011-10-10 07:31:30 51°11.369 2°45.74 15.6215 4.271671 34.091994 -3.020363
2011-10-10 07:31:34 51°11.364 2°45.721 15.6246 4.271982 34.089808 -3.020363
2011-10-10 07:31:39 51°11.358 2°45.697 15.6372 4.272293 34.091166 -3.020363
2011-10-10 07:31:44 51°11.352 2°45.674 15.6272 4.2725 34.097978 -3.020363
2011-10-10 07:31:49 51°11.346 2°45.65 15.6138 4.264931 34.033982 -3.020363
2011-10-10 07:31:54 51°11.341 2°45.626 15.6138 4.272604 34.103867 -3.020363
2011-10-10 07:31:59 51°11.335 2°45.602 15.6215 4.272604 34.103867 -3.020363
2011-10-10 07:32:04 51°11.329 2°45.579 15.6359 4.272604 34.105286 -3.020363
2011-10-10 07:32:10 51°11.322 2°45.552 15.6326 4.272604 34.102449 -3.020363
2011-10-10 07:32:14 51°11.318 2°45.533 15.6354 4.272812 34.100045 -3.020363
2011-10-10 07:32:19 51°11.311 2°45.51 15.6384 4.273123 34.102112 -3.020363
2011-10-10 07:32:24 51°11.305 2°45.487 15.6415 4.27333 34.104672 -3.020363
2011-10-10 07:32:30 51°11.298 2°45.46 15.6333 4.27333 34.104672 -3.020363
2011-10-10 07:32:35 51°11.292 2°45.438 15.6424 4.273537 34.107231 -3.020363
2011-10-10 07:32:40 51°11.286 2°45.414 15.6346 4.273641 34.10532 -3.020363
2011-10-10 07:32:45 51°11.28 2°45.39 15.6203 4.273848 34.104335 -3.020363
2011-10-10 07:32:50 51°11.273 2°45.368 15.6259 4.274159 34.104275 -3.020363
2011-10-10 07:32:54 51°11.268 2°45.349 15.6416 4.274574 34.105139 -3.020363
2011-10-10 07:32:59 51°11.262 2°45.326 15.6725 4.274574 34.105139 -3.020363
2011-10-10 07:33:04 51°11.255 2°45.302 15.6411 4.274885 34.105079 -3.020363
2011-10-10 07:33:09 51°11.248 2°45.279 15.6369 4.275196 34.106437 -3.020363
2011-10-10 07:33:14 51°11.242 2°45.256 15.6403 4.275507 34.109212 -3.020363
2011-10-10 07:33:19 51°11.235 2°45.233 15.6415 4.275818 34.115531 -3.020363
2011-10-10 07:33:24 51°11.229 2°45.21 15.6594 4.275922 34.117874 -3.020363
2011-10-10 07:33:30 51°11.222 2°45.183 15.6408 4.275922 34.117874 -3.020363
2011-10-10 07:33:34 51°11.217 2°45.165 15.653 4.275922 34.11362 -3.020363
2011-10-10 07:33:39 51°11.211 2°45.142 15.6428 4.276233 34.11356 -3.020363
2011-10-10 07:33:44 51°11.205 2°45.118 15.6499 4.276544 34.115626 -3.020363
2011-10-10 07:33:49 51°11.199 2°45.095 15.6437 4.276752 34.118184 -3.020363
2011-10-10 07:33:54 51°11.194 2°45.072 15.6524 4.276959 34.117199 -3.020363
2011-10-10 07:33:59 51°11.188 2°45.048 15.6451 4.276959 34.117199 -3.020363
2011-10-10 07:34:04 51°11.182 2°45.024 15.6435 4.277166 34.115504 -3.020363
2011-10-10 07:34:10 51°11.175 2°44.996 15.6465 4.277477 34.118279 -3.020363
2011-10-10 07:34:14 51°11.17 2°44.977 15.6622 4.277581 34.118495 -3.020363
2011-10-10 07:34:20 51°11.164 2°44.949 15.663 4.277788 34.121053 -3.020363
2011-10-10 07:34:25 51°11.159 2°44.926 15.6547 4.277996 34.122903 -3.020363
2011-10-10 07:34:30 51°11.155 2°44.902 15.6509 4.277996 34.122903 -3.020363
2011-10-10 07:34:34 51°11.151 2°44.883 15.6584 4.277996 34.122194 -3.020363
2011-10-10 07:34:39 51°11.147 2°44.858 15.6689 4.278099 34.125246 -3.020363
2011-10-10 07:34:44 51°11.143 2°44.834 15.666 4.278099 34.125246 -3.020363
2011-10-10 07:34:49 51°11.139 2°44.81 15.6641 4.278099 34.121701 -3.020363
2011-10-10 07:34:54 51°11.135 2°44.785 15.6605 4.278307 34.120007 -3.020363
2011-10-10 07:34:59 51°11.132 2°44.761 15.665 4.278307 34.120007 -3.020363
2011-10-10 07:35:04 51°11.129 2°44.737 15.6645 4.278514 34.122565 -3.020363
2011-10-10 07:35:10 51°11.126 2°44.708 15.6854 4.278618 34.12349 -3.020363
2011-10-10 07:35:14 51°11.125 2°44.688 15.6646 4.278721 34.122288 -3.020363
2011-10-10 07:35:19 51°11.122 2°44.664 15.6592 4.278929 34.120594 -3.020363
2011-10-10 07:35:24 51°11.12 2°44.639 15.6637 4.279136 34.121735 -3.020363
2011-10-10 07:35:30 51°11.117 2°44.61 15.6693 4.279136 34.121735 -3.020363
2011-10-10 07:35:34 51°11.115 2°44.59 15.6601 4.279344 34.122167 -3.020363
2011-10-10 07:35:39 51°11.112 2°44.566 15.6605 4.279447 34.121674 -3.020363
2011-10-10 07:35:45 51°11.109 2°44.539 15.6672 4.279655 34.119981 -3.020363
2011-10-10 07:35:50 51°11.106 2°44.515 15.6737 4.279862 34.122538 -3.020363
2011-10-10 07:35:54 51°11.103 2°44.496 15.6684 4.280069 34.12793 -3.020363
2011-10-10 07:35:59 51°11.101 2°44.472 15.6609 4.280069 34.12793 -3.020363
2011-10-10 07:36:04 51°11.098 2°44.448 15.6613 4.280173 34.128854 -3.020363
2011-10-10 07:36:10 51°11.094 2°44.419 15.6614 4.28038 34.130703 -3.020363
2011-10-10 07:36:14 51°11.092 2°44.399 15.6644 4.280484 34.133045 -3.020363
2011-10-10 07:36:19 51°11.089 2°44.374 15.6589 4.280691 34.133477 -3.020363
2011-10-10 07:36:24 51°11.087 2°44.349 15.6569 4.280795 34.132984 -3.020363
2011-10-10 07:36:30 51°11.083 2°44.32 15.6646 4.281003 34.13625 -3.020363
2011-10-10 07:36:34 51°11.081 2°44.3 15.6625 4.281003 34.13625 -3.020363
2011-10-10 07:36:39 51°11.079 2°44.276 15.6647 4.281314 34.141151 -3.020363
2011-10-10 07:36:44 51°11.076 2°44.251 15.6589 4.281417 34.141367 -3.020363
2011-10-10 07:36:49 51°11.073 2°44.226 15.6575 4.281625 34.142507 -3.020363
2011-10-10 07:36:54 51°11.07 2°44.202 15.6577 4.281832 34.145065 -3.020363
2011-10-10 07:36:58 51°11.068 2°44.183 15.67 4.281832 34.145065 -3.020363
2011-10-10 07:37:04 51°11.064 2°44.154 15.6745 4.282143 34.148548 -3.020363
2011-10-10 07:37:09 51°11.061 2°44.13 15.6651 4.282351 34.149688 -3.020363
2011-10-10 07:37:14 51°11.058 2°44.106 15.6686 4.282558 34.151538 -3.020363
2011-10-10 07:37:19 51°11.054 2°44.082 15.6661 4.282973 34.155946 -3.020363
2011-10-10 07:37:24 51°11.051 2°44.058 15.6693 4.28318 34.159214 -3.020363
2011-10-10 07:37:29 51°11.047 2°44.034 15.6681 4.28318 34.159214 -3.020363
2011-10-10 07:37:34 51°11.044 2°44.01 15.6726 4.283491 34.15986 -3.020363
2011-10-10 07:37:39 51°11.04 2°43.986 15.6651 4.283699 34.159581 -3.020363
2011-10-10 07:37:44 51°11.036 2°43.962 15.6723 4.28401 34.160936 -3.020363
2011-10-10 07:37:50 51°11.032 2°43.933 15.6672 4.284424 34.165344 -3.020363
2011-10-10 07:37:54 51°11.029 2°43.914 15.67 4.284736 34.168828 -3.020363
2011-10-10 07:37:59 51°11.025 2°43.891 15.6744 4.284736 34.168828 -3.020363
2011-10-10 07:38:04 51°11.022 2°43.866 15.6661 4.284943 34.169968 -3.020363
2011-10-10 07:38:10 51°11.017 2°43.837 15.6771 4.285254 34.172032 -3.020363
2011-10-10 07:38:14 51°11.014 2°43.818 15.6721 4.285565 34.174806 -3.020363
2011-10-10 07:38:19 51°11.011 2°43.793 15.68 4.285772 34.175946 -3.020363
2011-10-10 07:38:24 51°11.009 2°43.768 15.6752 4.285876 34.176871 -3.020363
2011-10-10 07:38:30 51°11.007 2°43.738 15.6741 4.285876 34.176871 -3.020363
2011-10-10 07:38:34 51°11.006 2°43.718 15.6734 4.286083 34.177301 -3.020363
2011-10-10 07:38:39 51°11.005 2°43.694 15.6761 4.286395 34.179365 -3.020363
2011-10-10 07:38:44 51°11.005 2°43.669 15.6694 4.286706 34.180719 -3.020363
2011-10-10 07:38:49 51°11.004 2°43.644 15.6725 4.286913 34.181149 -3.020363
2011-10-10 07:38:54 51°11.004 2°43.619 15.6812 4.287017 34.181364 -3.020363
2011-10-10 07:38:59 51°11.005 2°43.594 15.6765 4.287017 34.181364 -3.020363
2011-10-10 07:39:04 51°11.005 2°43.569 15.6788 4.287224 34.183923 -3.020363
2011-10-10 07:39:09 51°11.005 2°43.544 15.6858 4.287535 34.187407 -3.020363
2011-10-10 07:39:14 51°11.006 2°43.519 15.6792 4.287639 34.188331 -3.020363
2011-10-10 07:39:19 51°11.006 2°43.494 15.6879 4.287846 34.190181 -3.020363
2011-10-10 07:39:24 51°11.007 2°43.469 15.6869 4.28795 34.189686 -3.020363
2011-10-10 07:39:29 51°11.007 2°43.444 15.6856 4.28795 34.189686 -3.020363
2011-10-10 07:39:34 51°11.007 2°43.419 15.6817 4.288054 34.188481 -3.020363
2011-10-10 07:39:39 51°11.008 2°43.394 15.6815 4.288261 34.19033 -3.020363
2011-10-10 07:39:44 51°11.008 2°43.369 15.6794 4.288468 34.19005 -3.020363
2011-10-10 07:39:50 51°11.007 2°43.34 15.6775 4.288676 34.191899 -3.020363
2011-10-10 07:39:54 51°11.007 2°43.321 15.6875 4.288779 34.192823 -3.020363
2011-10-10 07:39:58 51°11.006 2°43.302 15.6838 4.288779 34.192823 -3.020363
2011-10-10 07:40:04 51°11.006 2°43.272 15.6888 4.288883 34.193038 -3.020363
2011-10-10 07:40:10 51°11.005 2°43.243 15.6837 4.28909 34.195597 -3.020363
2011-10-10 07:40:14 51°11.005 2°43.224 15.6848 4.289298 34.197446 -3.020363
2011-10-10 07:40:18 51°11.004 2°43.205 15.6935 4.289402 34.19908 -3.020363
2011-10-10 07:40:24 51°11.003 2°43.176 15.6942 4.289505 34.200005 -3.020363
2011-10-10 07:40:30 51°11.003 2°43.147 15.6989 4.289505 34.200005 -3.020363
2011-10-10 07:40:34 51°11.003 2°43.127 15.6938 4.289609 34.19951 -3.020363
2011-10-10 07:40:39 51°11.003 2°43.103 15.69 4.289713 34.199015 -3.020363
2011-10-10 07:40:44 51°11.003 2°43.078 15.6905 4.28992 34.200154 -3.020363
2011-10-10 07:40:50 51°11.003 2°43.049 15.6953 4.290024 34.199659 -3.020363
2011-10-10 07:40:54 51°11.003 2°43.029 15.6984 4.290231 34.198669 -3.020363
2011-10-10 07:40:59 51°11.004 2°43.005 15.7028 4.290231 34.198669 -3.020363
2011-10-10 07:41:04 51°11.004 2°42.981 15.7025 4.290335 34.197464 -3.020363
2011-10-10 07:41:09 51°11.005 2°42.956 15.7075 4.290542 34.198603 -3.020363
2011-10-10 07:41:14 51°11.005 2°42.932 15.7053 4.290853 34.202086 -3.020363
2011-10-10 07:41:18 51°11.006 2°42.912 15.7072 4.290853 34.202086 -3.020363
2011-10-10 07:41:24 51°11.007 2°42.882 15.7013 4.290957 34.20301 -3.020363
2011-10-10 07:41:29 51°11.007 2°42.858 15.6998 4.290957 34.20301 -3.020363
2011-10-10 07:41:34 51°11.008 2°42.834 15.7029 4.29106 34.201805 -3.020363
2011-10-10 07:41:39 51°11.009 2°42.81 15.7065 4.291164 34.199891 -3.020363
2011-10-10 07:41:44 51°11.01 2°42.786 15.7094 4.291371 34.199611 -3.020363
2011-10-10 07:41:50 51°11.01 2°42.758 15.7087 4.291579 34.20004 -3.020363
2011-10-10 07:41:54 51°11.011 2°42.741 15.7053 4.291683 34.200964 -3.020363
2011-10-10 07:41:59 51°11.011 2°42.72 15.703 4.29189 34.203522 -3.020363
2011-10-10 07:42:05 51°11.012 2°42.696 15.7112 4.29189 34.203522 -3.020363
2011-10-10 07:42:10 51°11.012 2°42.677 15.7136 4.29189 34.204232 -3.020363
2011-10-10 07:42:14 51°11.013 2°42.662 15.7192 4.291994 34.203737 -3.020363
2011-10-10 07:42:19 51°11.013 2°42.644 15.7114 4.291994 34.201608 -3.020363
2011-10-10 07:42:24 51°11.014 2°42.625 15.7095 4.292201 34.202747 -3.020363
2011-10-10 07:42:30 51°11.014 2°42.606 15.7139 4.292201 34.202747 -3.020363
2011-10-10 07:42:34 51°11.014 2°42.593 15.7199 4.292305 34.20509 -3.020363
2011-10-10 07:42:38 51°11.015 2°42.58 15.7167 4.292408 34.204595 -3.020363
2011-10-10 07:42:44 51°11.015 2°42.56 15.7174 4.292512 34.2041 -3.020363
2011-10-10 07:42:50 51°11.015 2°42.541 15.7198 4.292616 34.202187 -3.020363
2011-10-10 07:42:54 51°11.015 2°42.528 15.7152 4.282454 34.110949 -3.020363
2011-10-10 07:42:59 51°11.016 2°42.511 15.7179 4.282454 34.110949 -3.020363
2011-10-10 07:43:04 51°11.016 2°42.496 15.7178 4.292719 34.202401 -3.020363
2011-10-10 07:43:09 51°11.017 2°42.481 15.7226 4.292927 34.20354 -3.020363
2011-10-10 07:43:14 51°11.017 2°42.465 15.7267 4.29303 34.203045 -3.020363
2011-10-10 07:43:19 51°11.018 2°42.45 15.726 4.293134 34.20326 -3.020363
2011-10-10 07:43:24 51°11.018 2°42.435 15.7232 4.293445 34.205322 -3.020363
2011-10-10 07:43:29 51°11.018 2°42.42 15.7241 4.293445 34.205322 -3.020363
2011-10-10 07:43:34 51°11.019 2°42.405 15.7235 4.293549 34.206246 -3.020363
2011-10-10 07:43:39 51°11.019 2°42.389 15.7235 4.293653 34.206461 -3.020363
2011-10-10 07:43:44 51°11.02 2°42.373 15.7252 4.29386 34.20689 -3.020363
2011-10-10 07:43:49 51°11.021 2°42.357 15.7305 4.293964 34.206395 -3.020363
2011-10-10 07:43:54 51°11.021 2°42.342 15.7293 4.294171 34.206824 -3.020363
2011-10-10 07:43:59 51°11.022 2°42.326 15.7303 4.294378 34.208672 -3.020363
2011-10-10 07:44:04 51°11.022 2°42.312 15.7293 4.294378 34.208672 -3.020363
2011-10-10 07:44:09 51°11.023 2°42.299 15.7326 4.294378 34.208672 -3.020363
2011-10-10 07:44:14 51°11.023 2°42.286 15.7331 4.294586 34.20981 -3.020363
2011-10-10 07:44:19 51°11.024 2°42.276 15.7349 4.294689 34.210025 -3.020363
2011-10-10 07:44:25 51°11.024 2°42.266 15.735 4.294793 34.208821 -3.020363
2011-10-10 07:44:30 51°11.024 2°42.257 15.7397 4.294793 34.208821 -3.020363
2011-10-10 07:44:34 51°11.025 2°42.251 15.7357 4.295 34.209959 -3.020363
2011-10-10 07:44:39 51°11.025 2°42.243 15.7395 4.295208 34.211097 -3.020363
2011-10-10 07:44:44 51°11.025 2°42.236 15.7386 4.295312 34.210603 -3.020363
2011-10-10 07:44:50 51°11.026 2°42.228 15.7381 4.295519 34.211741 -3.020363
2011-10-10 07:44:54 51°11.026 2°42.223 15.7435 4.295623 34.211246 -3.020363
2011-10-10 07:44:59 51°11.027 2°42.217 15.7462 4.295623 34.211246 -3.020363
2011-10-10 07:45:04 51°11.027 2°42.212 15.7442 4.295726 34.211461 -3.020363
2011-10-10 07:45:10 51°11.028 2°42.206 15.745 4.295934 34.21189 -3.020363
2011-10-10 07:45:14 51°11.029 2°42.203 15.7464 4.296037 34.212104 -3.020363
2011-10-10 07:45:19 51°11.029 2°42.199 15.7468 4.296245 34.212533 -3.020363
2011-10-10 07:45:24 51°11.029 2°42.195 15.746 4.296348 34.212748 -3.020363
2011-10-10 07:45:29 51°11.03 2°42.191 15.7473 4.296348 34.212748 -3.020363
2011-10-10 07:45:34 51°11.031 2°42.186 15.7454 4.296556 34.212468 -3.020363
2011-10-10 07:45:39 51°11.032 2°42.183 15.7472 4.296659 34.211264 -3.020363
2011-10-10 07:45:44 51°11.033 2°42.179 15.7468 4.296867 34.212402 -3.020363
2011-10-10 07:45:49 51°11.033 2°42.176 15.7473 4.29697 34.213326 -3.020363
2011-10-10 07:45:54 51°11.034 2°42.173 15.7509 4.297178 34.214464 -3.020363
2011-10-10 07:45:59 51°11.035 2°42.17 15.7559 4.297178 34.214464 -3.020363
2011-10-10 07:46:04 51°11.036 2°42.166 15.7523 4.297282 34.215387 -3.020363
2011-10-10 07:46:10 51°11.037 2°42.163 15.7532 4.297385 34.21631 -3.020363
2011-10-10 07:46:14 51°11.037 2°42.161 15.7536 4.297489 34.217234 -3.020363
2011-10-10 07:46:19 51°11.039 2°42.159 15.7568 4.297593 34.217448 -3.020363
2011-10-10 07:46:25 51°11.04 2°42.156 15.7604 4.297593 34.216739 -3.020363
2011-10-10 07:46:30 51°11.042 2°42.155 15.7628 4.297593 34.216739 -3.020363
2011-10-10 07:46:34 51°11.043 2°42.153 15.7621 4.297696 34.216245 -3.020363
2011-10-10 07:46:39 51°11.045 2°42.15 15.761 4.2978 34.216459 -3.020363
2011-10-10 07:46:45 51°11.046 2°42.147 15.7599 4.297904 34.216674 -3.020363
2011-10-10 07:46:50 51°11.048 2°42.145 15.7619 4.298007 34.216888 -3.020363
2011-10-10 07:46:55 51°11.049 2°42.144 15.7622 4.298215 34.216608 -3.020363
2011-10-10 07:47:01 51°11.051 2°42.143 15.7632 4.298215 34.216608 -3.020363
2011-10-10 07:47:06 51°11.052 2°42.143 15.7664 4.298318 34.216114 -3.020363
2011-10-10 07:47:11 51°11.053 2°42.142 15.7664 4.298526 34.215834 -3.020363
2011-10-10 07:47:17 51°11.055 2°42.143 15.7632 4.298733 34.21768 -3.020363
2011-10-10 07:47:22 51°11.056 2°42.143 15.7666 4.298837 34.218603 -3.020363
2011-10-10 07:47:27 51°11.057 2°42.144 15.7688 4.299044 34.219032 -3.020363
2011-10-10 07:47:32 51°11.058 2°42.145 15.7677 4.299044 34.219032 -3.020363
2011-10-10 07:47:37 51°11.06 2°42.146 15.7706 4.299044 34.218323 -3.020363
2011-10-10 07:47:42 51°11.061 2°42.147 15.7707 4.2978 34.20583 -3.020363
2011-10-10 07:47:46 51°11.062 2°42.149 15.7729 4.299355 34.218967 -3.020363
2011-10-10 07:47:51 51°11.063 2°42.15 15.7755 4.299459 34.21989 -3.020363
2011-10-10 07:47:56 51°11.064 2°42.153 15.7745 4.299563 34.220813 -3.020363
2011-10-10 07:48:02 51°11.064 2°42.155 15.7802 4.299563 34.220813 -3.020363
2011-10-10 07:48:06 51°11.065 2°42.157 15.7767 4.299666 34.220318 -3.020363
2011-10-10 07:48:11 51°11.065 2°42.158 15.7772 4.29977 34.220533 -3.020363
2011-10-10 07:48:16 51°11.066 2°42.16 15.779 4.299874 34.220039 -3.020363
2011-10-10 07:48:21 51°11.066 2°42.162 15.7797 4.300081 34.220467 -3.020363
2011-10-10 07:48:26 51°11.067 2°42.164 15.7828 4.300081 34.21905 -3.020363
2011-10-10 07:48:30 51°11.067 2°42.165 15.7874 4.300081 34.21905 -3.020363
2011-10-10 07:48:35 51°11.067 2°42.167 15.7875 4.300185 34.218556 -3.020363
2011-10-10 07:48:40 51°11.067 2°42.169 15.7845 4.300392 34.219693 -3.020363
2011-10-10 07:48:45 51°11.068 2°42.171 15.7873 4.300599 34.220831 -3.020363
2011-10-10 07:48:50 51°11.068 2°42.173 15.7855 4.300703 34.220337 -3.020363
2011-10-10 07:48:54 51°11.068 2°42.174 15.7856 4.300807 34.219134 -3.020363
2011-10-10 07:48:59 51°11.068 2°42.176 15.7851 4.300807 34.219134 -3.020363
2011-10-10 07:49:04 51°11.069 2°42.178 15.7898 4.301014 34.219563 -3.020363
2011-10-10 07:49:09 51°11.069 2°42.181 15.7899 4.301222 34.219992 -3.020363
2011-10-10 07:49:14 51°11.069 2°42.183 15.7914 4.301325 34.220206 -3.020363
2011-10-10 07:49:19 51°11.069 2°42.184 15.7897 4.301533 34.221343 -3.020363
2011-10-10 07:49:24 51°11.069 2°42.186 15.7914 4.301533 34.221343 -3.020363
2011-10-10 07:49:30 51°11.069 2°42.189 15.7914 4.301533 34.221343 -3.020363
2011-10-10 07:49:34 51°11.069 2°42.191 15.7916 4.30174 34.22248 -3.020363
2011-10-10 07:49:38 51°11.069 2°42.192 15.7921 4.301636 34.220849 -3.020363
2011-10-10 07:49:44 51°11.069 2°42.195 15.7971 4.301844 34.221986 -3.020363
2011-10-10 07:49:49 51°11.069 2°42.197 15.7976 4.301947 34.221493 -3.020363
2011-10-10 07:49:54 51°11.069 2°42.199 15.7971 4.302051 34.222415 -3.020363
2011-10-10 07:49:59 51°11.069 2°42.201 15.7997 4.302051 34.222415 -3.020363
2011-10-10 07:50:04 51°11.069 2°42.204 15.7987 4.302155 34.222629 -3.020363
2011-10-10 07:50:10 51°11.069 2°42.206 15.8029 4.302258 34.223552 -3.020363
2011-10-10 07:50:14 51°11.069 2°42.207 15.8026 4.302258 34.223552 -3.020363
2011-10-10 07:50:19 51°11.069 2°42.21 15.7997 4.302362 34.22235 -3.020363
2011-10-10 07:50:24 51°11.069 2°42.212 15.8006 4.302673 34.223701 -3.020363
2011-10-10 07:50:30 51°11.069 2°42.214 15.8053 4.302673 34.223701 -3.020363
2011-10-10 07:50:34 51°11.069 2°42.216 15.8002 4.302569 34.222071 -3.020363
2011-10-10 07:50:39 51°11.069 2°42.218 15.803 4.302777 34.222499 -3.020363
2011-10-10 07:50:44 51°11.069 2°42.22 15.7994 4.302777 34.221083 -3.020363
2011-10-10 07:50:50 51°11.069 2°42.222 15.8014 4.302984 34.22222 -3.020363
2011-10-10 07:50:54 51°11.069 2°42.224 15.8015 4.303088 34.223142 -3.020363
2011-10-10 07:50:59 51°11.069 2°42.226 15.8004 4.303088 34.223142 -3.020363
2011-10-10 07:51:04 51°11.069 2°42.228 15.8032 4.303192 34.223357 -3.020363
2011-10-10 07:51:10 51°11.069 2°42.231 15.8056 4.303295 34.223571 -3.020363
2011-10-10 07:51:14 51°11.069 2°42.231 15.8083 4.303295 34.224279 -3.020363
2011-10-10 07:51:19 51°11.069 2°42.234 15.8083 4.303399 34.225202 -3.020363
2011-10-10 07:51:24 51°11.069 2°42.236 15.8058 4.303399 34.225202 -3.020363
2011-10-10 07:51:30 51°11.069 2°42.238 15.8058 4.303399 34.225202 -3.020363
2011-10-10 07:51:34 51°11.069 2°42.24 15.8051 4.303399 34.225202 -3.020363
2011-10-10 07:51:39 51°11.069 2°42.242 15.8069 4.303503 34.225416 -3.020363
2011-10-10 07:51:44 51°11.069 2°42.244 15.808 4.303606 34.22563 -3.020363
2011-10-10 07:51:49 51°11.069 2°42.246 15.8077 4.303814 34.225351 -3.020363
2011-10-10 07:51:54 51°11.068 2°42.248 15.8068 4.30371 34.223721 -3.020363
2011-10-10 07:51:59 51°11.068 2°42.251 15.8084 4.30371 34.223721 -3.020363
2011-10-10 07:52:04 51°11.068 2°42.253 15.8107 4.303814 34.224643 -3.020363
2011-10-10 07:52:10 51°11.068 2°42.255 15.8114 4.304021 34.226487 -3.020363
2011-10-10 07:52:14 51°11.068 2°42.258 15.8106 4.304021 34.226487 -3.020363
2011-10-10 07:52:18 51°11.068 2°42.258 15.8096 4.303917 34.224857 -3.020363
2011-10-10 07:52:24 51°11.068 2°42.263 15.813 4.304021 34.225072 -3.020363
2011-10-10 07:52:29 51°11.068 2°42.265 15.8113 4.304021 34.225072 -3.020363
2011-10-10 07:52:34 51°11.068 2°42.267 15.8131 4.304021 34.225779 -3.020363
2011-10-10 07:52:39 51°11.068 2°42.27 15.812 4.304021 34.225072 -3.020363
2011-10-10 07:52:44 51°11.068 2°42.273 15.8123 4.304125 34.224578 -3.020363
2011-10-10 07:52:50 51°11.068 2°42.276 15.8126 4.304228 34.2255 -3.020363
2011-10-10 07:52:54 51°11.068 2°42.276 15.8114 4.304228 34.224792 -3.020363
2011-10-10 07:52:59 51°11.069 2°42.279 15.8092 4.304228 34.224792 -3.020363
2011-10-10 07:53:05 51°11.069 2°42.281 15.8084 4.304332 34.225007 -3.020363
2011-10-10 07:53:10 51°11.069 2°42.283 15.8087 4.304332 34.224299 -3.020363
2011-10-10 07:53:14 51°11.069 2°42.284 15.8098 4.304332 34.224299 -3.020363
2011-10-10 07:53:19 51°11.069 2°42.286 15.8151 4.304436 34.225929 -3.020363
2011-10-10 07:53:24 51°11.069 2°42.288 15.81 4.304539 34.226143 -3.020363
2011-10-10 07:53:29 51°11.069 2°42.289 15.8105 4.304539 34.226143 -3.020363
2011-10-10 07:53:34 51°11.07 2°42.291 15.8081 4.304539 34.226851 -3.020363
2011-10-10 07:53:39 51°11.07 2°42.293 15.8101 4.304539 34.227559 -3.020363
2011-10-10 07:53:44 51°11.07 2°42.296 15.813 4.304436 34.227345 -3.020363
2011-10-10 07:53:50 51°11.07 2°42.298 15.8102 4.304436 34.226637 -3.020363
2011-10-10 07:53:54 51°11.07 2°42.301 15.8124 4.304436 34.225929 -3.020363
2011-10-10 07:53:59 51°11.07 2°42.302 15.8121 4.304436 34.225929 -3.020363
2011-10-10 07:54:04 51°11.07 2°42.304 15.8115 4.304436 34.226637 -3.020363
2011-10-10 07:54:10 51°11.07 2°42.307 15.8153 4.304436 34.226637 -3.020363
2011-10-10 07:54:14 51°11.07 2°42.308 15.8115 4.304436 34.227345 -3.020363
2011-10-10 07:54:19 51°11.07 2°42.31 15.8134 4.304436 34.226637 -3.020363
2011-10-10 07:54:24 51°11.07 2°42.314 15.81 4.297695 34.166702 -3.020363
2011-10-10 07:54:30 51°11.07 2°42.315 15.8089 4.297695 34.166702 -3.020363
2011-10-10 07:54:34 51°11.07 2°42.318 15.8107 4.280482 34.012308 -3.020363
2011-10-10 07:54:39 51°11.07 2°42.319 15.8091 4.28069 34.014151 -3.020363
2011-10-10 07:54:44 51°11.07 2°42.322 15.8096 4.280586 34.013229 -3.020363
2011-10-10 07:54:50 51°11.07 2°42.325 15.8096 4.279964 34.007702 -3.020363
2011-10-10 07:54:54 51°11.07 2°42.326 15.8125 4.280586 34.013933 -3.020363
2011-10-10 07:54:59 51°11.07 2°42.329 15.8136 4.280586 34.013933 -3.020363
2011-10-10 07:55:04 51°11.07 2°42.33 15.8132 4.280275 34.011169 -3.020363
2011-10-10 07:55:10 51°11.07 2°42.334 15.813 4.280379 34.012794 -3.020363
2011-10-10 07:55:14 51°11.07 2°42.336 15.8121 4.280275 34.011872 -3.020363
2011-10-10 07:55:19 51°11.07 2°42.337 15.813 4.280482 34.014418 -3.020363
2011-10-10 07:55:25 51°11.07 2°42.341 15.8153 4.280275 34.011872 -3.020363
2011-10-10 07:55:30 51°11.069 2°42.341 15.812 4.280275 34.011872 -3.020363
2011-10-10 07:55:34 51°11.069 2°42.345 15.8111 4.279964 34.008405 -3.020363
2011-10-10 07:55:39 51°11.069 2°42.346 15.8123 4.280067 34.008623 -3.020363
2011-10-10 07:55:44 51°11.069 2°42.348 15.8109 4.280171 34.009544 -3.020363
2011-10-10 07:55:49 51°11.069 2°42.35 15.8094 4.278512 33.994102 -3.020363
2011-10-10 07:55:54 51°11.069 2°42.352 15.8049 4.27986 34.006078 -3.020363
2011-10-10 07:55:59 51°11.068 2°42.353 15.8 4.27986 34.006078 -3.020363
2011-10-10 07:56:04 51°11.068 2°42.355 15.795 4.27986 34.006078 -3.020363
2011-10-10 07:56:10 51°11.068 2°42.358 15.7975 4.279653 34.004235 -3.020363
2011-10-10 07:56:14 51°11.068 2°42.359 15.7975 4.27986 34.005374 -3.020363
2011-10-10 07:56:18 51°11.068 2°42.361 15.7981 4.280378 34.008574 -3.020363
2011-10-10 07:56:24 51°11.068 2°42.363 15.7997 4.280275 34.00484 -3.020363
2011-10-10 07:56:30 51°11.068 2°42.365 15.7999 4.27986 34.001859 -3.020363
2011-10-10 07:56:34 51°11.068 2°42.368 15.7975 4.27986 34.001859 -3.020363
2011-10-10 07:56:39 51°11.068 2°42.37 15.7991 4.279549 34.001205 -3.020363
2011-10-10 07:56:44 51°11.068 2°42.372 15.7955 4.279342 34.001472 -3.020363
2011-10-10 07:56:50 51°11.068 2°42.373 15.798 4.279238 34.001254 -3.020363
2011-10-10 07:56:54 51°11.068 2°42.376 15.7975 4.27903 33.998708 -3.020363
2011-10-10 07:56:59 51°11.068 2°42.377 15.7948 4.27903 33.998708 -3.020363
2011-10-10 07:57:04 51°11.068 2°42.379 15.7949 4.278512 33.994102 -3.020363
2011-10-10 07:57:10 51°11.068 2°42.382 15.7924 4.278927 33.997084 -3.020363
2011-10-10 07:57:14 51°11.068 2°42.385 15.793 4.278512 33.993399 -3.020363
2011-10-10 07:57:19 51°11.068 2°42.387 15.7956 4.278305 33.992963 -3.020363
2011-10-10 07:57:24 51°11.068 2°42.389 15.7944 4.277994 33.990199 -3.020363
2011-10-10 07:57:30 51°11.068 2°42.393 15.7956 4.277994 33.990199 -3.020363
2011-10-10 07:57:34 51°11.068 2°42.393 15.7917 4.278719 33.997351 -3.020363
2011-10-10 07:57:39 51°11.068 2°42.395 15.7943 4.278512 33.996211 -3.020363
2011-10-10 07:57:44 51°11.068 2°42.398 15.7917 4.27789 33.991387 -3.020363
2011-10-10 07:57:50 51°11.068 2°42.401 15.7927 4.277786 33.991169 -3.020363
2011-10-10 07:57:54 51°11.068 2°42.402 15.7903 4.277786 33.990466 -3.020363
2011-10-10 07:57:59 51°11.068 2°42.405 15.7961 4.277786 33.990466 -3.020363
2011-10-10 07:58:05 51°11.068 2°42.408 15.7911 4.277475 33.988405 -3.020363
2011-10-10 07:58:10 51°11.068 2°42.41 15.7925 4.277475 33.988405 -3.020363
2011-10-10 07:58:14 51°11.068 2°42.411 15.7911 4.277579 33.989326 -3.020363
2011-10-10 07:58:19 51°11.068 2°42.414 15.7902 4.277475 33.989108 -3.020363
2011-10-10 07:58:24 51°11.068 2°42.416 15.794 4.277579 33.991435 -3.020363
2011-10-10 07:58:30 51°11.068 2°42.42 15.7896 4.277579 33.991435 -3.020363
2011-10-10 07:58:34 51°11.068 2°42.419 15.7905 4.277371 33.989593 -3.020363
2011-10-10 07:58:39 51°11.068 2°42.423 15.7914 4.277164 33.98775 -3.020363
2011-10-10 07:58:44 51°11.068 2°42.424 15.7905 4.278097 33.996745 -3.020363
2011-10-10 07:58:50 51°11.068 2°42.427 15.7899 4.277164 33.98775 -3.020363
2011-10-10 07:58:54 51°11.068 2°42.429 15.7942 4.277786 33.993981 -3.020363
2011-10-10 07:58:59 51°11.068 2°42.432 15.7928 4.277786 33.993981 -3.020363
2011-10-10 07:59:04 51°11.068 2°42.434 15.7936 4.277786 33.993278 -3.020363
2011-10-10 07:59:09 51°11.068 2°42.435 15.7896 4.27706 33.986829 -3.020363
2011-10-10 07:59:14 51°11.068 2°42.439 15.7895 4.277475 33.991217 -3.020363
2011-10-10 07:59:19 51°11.068 2°42.44 15.7921 4.276542 33.983628 -3.020363
2011-10-10 07:59:24 51°11.068 2°42.441 15.7926 4.27872 34.002273 -3.020363
2011-10-10 07:59:30 51°11.068 2°42.444 15.7921 4.27872 34.002273 -3.020363
2011-10-10 07:59:34 51°11.068 2°42.447 15.791 4.277683 33.992356 -3.020363
2011-10-10 07:59:38 51°11.068 2°42.447 15.7894 4.277268 33.988671 -3.020363
2011-10-10 07:59:44 51°11.068 2°42.45 15.796 4.277268 33.988671 -3.020363
2011-10-10 07:59:50 51°11.068 2°42.452 15.7939 4.277372 33.990296 -3.020363
2011-10-10 07:59:54 51°11.068 2°42.455 15.7885 4.276957 33.985908 -3.020363
2011-10-10 07:59:59 51°11.068 2°42.456 15.7892 4.276957 33.985908 -3.020363
2011-10-10 08:00:04 51°11.067 2°42.458 15.7875 4.276438 33.981302 -3.020363
2011-10-10 08:00:10 51°11.068 2°42.46 15.7949 4.27706 33.986829 -3.020363
2011-10-10 08:00:14 51°11.068 2°42.462 15.7906 4.276957 33.986611 -3.020363
2011-10-10 08:00:19 51°11.068 2°42.464 15.7882 4.276438 33.982004 -3.020363
2011-10-10 08:00:24 51°11.068 2°42.466 15.791 4.276749 33.984065 -3.020363
2011-10-10 08:00:30 51°11.068 2°42.469 15.7872 4.276749 33.984065 -3.020363
2011-10-10 08:00:34 51°11.068 2°42.471 15.7896 4.276542 33.982926 -3.020363
2011-10-10 08:00:39 51°11.068 2°42.472 15.7886 4.276438 33.982707 -3.020363
2011-10-10 08:00:44 51°11.068 2°42.475 15.7928 4.276749 33.986174 -3.020363
2011-10-10 08:00:49 51°11.068 2°42.477 15.7919 4.276231 33.980865 -3.020363
2011-10-10 08:00:54 51°11.068 2°42.478 15.7918 4.276438 33.98341 -3.020363
2011-10-10 08:00:59 51°11.068 2°42.481 15.7914 4.276438 33.98341 -3.020363
2011-10-10 08:01:04 51°11.068 2°42.483 15.7933 4.276749 33.986877 -3.020363
2011-10-10 08:01:10 51°11.068 2°42.486 15.7895 4.276957 33.989423 -3.020363
2011-10-10 08:01:14 51°11.068 2°42.486 15.7892 4.277475 33.994029 -3.020363
2011-10-10 08:01:18 51°11.068 2°42.489 15.7897 4.276127 33.981349 -3.020363
2011-10-10 08:01:24 51°11.068 2°42.491 15.7902 4.276438 33.98341 -3.020363
2011-10-10 08:01:29 51°11.068 2°42.494 15.7934 4.276438 33.98341 -3.020363
2011-10-10 08:01:34 51°11.068 2°42.495 15.7968 4.276853 33.986392 -3.020363
2011-10-10 08:01:39 51°11.068 2°42.496 15.7946 4.276853 33.984986 -3.020363
2011-10-10 08:01:44 51°11.068 2°42.499 15.7915 4.276542 33.982926 -3.020363
2011-10-10 08:01:50 51°11.068 2°42.502 15.7931 4.276127 33.979943 -3.020363
2011-10-10 08:01:54 51°11.068 2°42.502 15.7914 4.277268 33.990077 -3.020363
2011-10-10 08:01:59 51°11.068 2°42.504 15.7901 4.276438 33.982707 -3.020363
2011-10-10 08:02:04 51°11.069 2°42.506 15.7854 4.276438 33.982707 -3.020363
2011-10-10 08:02:10 51°11.069 2°42.51 15.7911 4.275816 33.976477 -3.020363
2011-10-10 08:02:14 51°11.069 2°42.511 15.7896 4.276646 33.982441 -3.020363
2011-10-10 08:02:19 51°11.069 2°42.513 15.7943 4.276438 33.981302 -3.020363
2011-10-10 08:02:24 51°11.069 2°42.515 15.7892 4.276542 33.982223 -3.020363
2011-10-10 08:02:30 51°11.069 2°42.517 15.7908 4.276542 33.982223 -3.020363
2011-10-10 08:02:34 51°11.069 2°42.519 15.7915 4.276127 33.978538 -3.020363
2011-10-10 08:02:39 51°11.07 2°42.521 15.7879 4.276749 33.984768 -3.020363
2011-10-10 08:02:44 51°11.07 2°42.522 15.7897 4.276438 33.982707 -3.020363
2011-10-10 08:02:50 51°11.072 2°42.525 15.7902 4.276542 33.983628 -3.020363
2011-10-10 08:02:54 51°11.074 2°42.526 15.7911 4.276024 33.979022 -3.020363
2011-10-10 08:02:59 51°11.077 2°42.528 15.7882 4.276024 33.979022 -3.020363
2011-10-10 08:03:04 51°11.081 2°42.531 15.7946 4.27592 33.978101 -3.020363
2011-10-10 08:03:09 51°11.086 2°42.534 15.7914 4.275505 33.974416 -3.020363
2011-10-10 08:03:14 51°11.091 2°42.537 15.79 4.276231 33.980865 -3.020363
2011-10-10 08:03:19 51°11.097 2°42.541 15.795 4.27592 33.978804 -3.020363
2011-10-10 08:03:24 51°11.102 2°42.547 15.7925 4.276957 33.98872 -3.020363
2011-10-10 08:03:29 51°11.108 2°42.554 15.7952 4.276957 33.98872 -3.020363
2011-10-10 08:03:34 51°11.112 2°42.563 15.7901 4.276542 33.984331 -3.020363
2011-10-10 08:03:40 51°11.117 2°42.576 15.7997 4.302777 34.216836 -3.020363
2011-10-10 08:03:46 51°11.121 2°42.589 15.8018 4.303088 34.218895 -3.020363
2011-10-10 08:03:50 51°11.121 2°42.599 15.8052 4.303191 34.219109 -3.020363
2011-10-10 08:03:55 51°11.123 2°42.611 15.8074 4.303295 34.218616 -3.020363
2011-10-10 08:04:01 51°11.121 2°42.627 15.8054 4.303295 34.218616 -3.020363
2011-10-10 08:04:06 51°11.119 2°42.641 15.8075 4.303399 34.21883 -3.020363
2011-10-10 08:04:10 51°11.116 2°42.651 15.8034 4.303606 34.219259 -3.020363
2011-10-10 08:04:15 51°11.115 2°42.667 15.8023 4.303814 34.21898 -3.020363
2011-10-10 08:04:20 51°11.111 2°42.682 15.802 4.303917 34.217072 -3.020363
2011-10-10 08:04:25 51°11.11 2°42.701 15.8019 4.304228 34.2163 -3.020363
2011-10-10 08:04:30 51°11.105 2°42.718 15.8004 4.304228 34.2163 -3.020363
2011-10-10 08:04:35 51°11.104 2°42.738 15.7956 4.304954 34.219216 -3.020363
2011-10-10 08:04:40 51°11.1 2°42.758 15.7906 4.304954 34.217802 -3.020363
2011-10-10 08:04:45 51°11.1 2°42.78 15.7872 4.305161 34.220353 -3.020363
2011-10-10 08:04:50 51°11.097 2°42.801 15.7844 4.304954 34.219924 -3.020363
2011-10-10 08:04:54 51°11.096 2°42.819 15.7882 4.305058 34.220846 -3.020363
2011-10-10 08:04:59 51°11.095 2°42.844 15.7808 4.305058 34.220846 -3.020363
2011-10-10 08:05:04 51°11.095 2°42.869 15.7755 4.304954 34.221339 -3.020363
2011-10-10 08:05:10 51°11.095 2°42.898 15.7729 4.304643 34.219988 -3.020363
2011-10-10 08:05:14 51°11.096 2°42.919 15.7673 4.304436 34.220975 -3.020363
2011-10-10 08:05:19 51°11.098 2°42.945 15.7683 4.304228 34.221961 -3.020363
2011-10-10 08:05:24 51°11.099 2°42.971 15.765 4.303917 34.222734 -3.020363
2011-10-10 08:05:30 51°11.102 2°43.003 15.7652 4.303503 34.221876 -3.020363
2011-10-10 08:05:34 51°11.105 2°43.023 15.7711 4.303503 34.221876 -3.020363
2011-10-10 08:05:39 51°11.107 2°43.049 15.7754 4.303088 34.221726 -3.020363
2011-10-10 08:05:44 51°11.111 2°43.075 15.7822 4.30288 34.222714 -3.020363
2011-10-10 08:05:49 51°11.114 2°43.1 15.7876 4.302362 34.220934 -3.020363
2011-10-10 08:05:54 51°11.118 2°43.126 15.7958 4.302155 34.221921 -3.020363
2011-10-10 08:05:59 51°11.121 2°43.152 15.804 4.302155 34.221921 -3.020363
2011-10-10 08:06:04 51°11.124 2°43.177 15.8123 4.30174 34.220356 -3.020363
2011-10-10 08:06:10 51°11.128 2°43.208 15.8289 4.301429 34.218296 -3.020363